<?xml version="1.0" encoding="UTF-8" standalone="no" ?>
<gpx xmlns="http://www.topografix.com/GPX/1/1" xmlns:xsi="http://www.w3.org/2001/XMLSchema-instance" xsi:schemaLocation="http://www.topografix.com/GPX/1/1 http://www.topografix.com/GPX/1/1/gpx.xsd" version="1.1" creator="VisuGPX - https://www.visugpx.com">
  <metadata>
    <name>blaymont mars 2015</name>
    <desc><![CDATA[samedi 14 mars 2015]]></desc>
  </metadata>
  <trk>
    <name><![CDATA[ACTIVE LOG 001]]></name>
    <trkseg>
      <trkpt lat="44.30256" lon="0.86364">
        <ele>196.72692871094</ele>
        <time>2015-03-14T07:51:47Z</time>
      </trkpt>
      <trkpt lat="44.30265" lon="0.86365">
        <ele>199.61083984375</ele>
        <time>2015-03-14T07:52:22Z</time>
      </trkpt>
      <trkpt lat="44.30273" lon="0.86363">
        <ele>202.01428222656</ele>
        <time>2015-03-14T07:52:43Z</time>
      </trkpt>
      <trkpt lat="44.30273" lon="0.86364">
        <ele>201.53356933594</ele>
        <time>2015-03-14T07:52:56Z</time>
      </trkpt>
      <trkpt lat="44.30267" lon="0.86367">
        <ele>201.05285644531</ele>
        <time>2015-03-14T07:53:35Z</time>
      </trkpt>
      <trkpt lat="44.30271" lon="0.86365">
        <ele>202.01428222656</ele>
        <time>2015-03-14T07:53:57Z</time>
      </trkpt>
      <trkpt lat="44.30286" lon="0.86363">
        <ele>201.05285644531</ele>
        <time>2015-03-14T07:54:12Z</time>
      </trkpt>
      <trkpt lat="44.30305" lon="0.86355">
        <ele>202.97546386719</ele>
        <time>2015-03-14T07:54:33Z</time>
      </trkpt>
      <trkpt lat="44.30313" lon="0.86353">
        <ele>202.01428222656</ele>
        <time>2015-03-14T07:54:49Z</time>
      </trkpt>
      <trkpt lat="44.30316" lon="0.86351">
        <ele>202.49487304688</ele>
        <time>2015-03-14T07:54:52Z</time>
      </trkpt>
      <trkpt lat="44.30331" lon="0.86346">
        <ele>203.93688964844</ele>
        <time>2015-03-14T07:55:04Z</time>
      </trkpt>
      <trkpt lat="44.30355" lon="0.86335">
        <ele>204.89807128906</ele>
        <time>2015-03-14T07:55:25Z</time>
      </trkpt>
      <trkpt lat="44.3038" lon="0.86313">
        <ele>206.34008789062</ele>
        <time>2015-03-14T07:55:52Z</time>
      </trkpt>
      <trkpt lat="44.30398" lon="0.86297">
        <ele>207.30139160156</ele>
        <time>2015-03-14T07:56:12Z</time>
      </trkpt>
      <trkpt lat="44.30407" lon="0.86279">
        <ele>208.26281738281</ele>
        <time>2015-03-14T07:56:28Z</time>
      </trkpt>
      <trkpt lat="44.30407" lon="0.86278">
        <ele>208.74340820312</ele>
        <time>2015-03-14T07:56:29Z</time>
      </trkpt>
      <trkpt lat="44.3041" lon="0.86273">
        <ele>208.74340820312</ele>
        <time>2015-03-14T07:56:33Z</time>
      </trkpt>
      <trkpt lat="44.30413" lon="0.86267">
        <ele>209.70483398438</ele>
        <time>2015-03-14T07:56:38Z</time>
      </trkpt>
      <trkpt lat="44.30427" lon="0.86242">
        <ele>210.666015625</ele>
        <time>2015-03-14T07:56:57Z</time>
      </trkpt>
      <trkpt lat="44.30432" lon="0.86222">
        <ele>214.03063964844</ele>
        <time>2015-03-14T07:57:10Z</time>
      </trkpt>
      <trkpt lat="44.30445" lon="0.86201">
        <ele>216.43395996094</ele>
        <time>2015-03-14T07:57:25Z</time>
      </trkpt>
      <trkpt lat="44.30448" lon="0.86195">
        <ele>216.43395996094</ele>
        <time>2015-03-14T07:57:29Z</time>
      </trkpt>
      <trkpt lat="44.3045" lon="0.86191">
        <ele>215.95324707031</ele>
        <time>2015-03-14T07:57:33Z</time>
      </trkpt>
      <trkpt lat="44.30469" lon="0.86164">
        <ele>214.99194335938</ele>
        <time>2015-03-14T07:57:56Z</time>
      </trkpt>
      <trkpt lat="44.30484" lon="0.86138">
        <ele>214.99194335938</ele>
        <time>2015-03-14T07:58:15Z</time>
      </trkpt>
      <trkpt lat="44.30492" lon="0.86115">
        <ele>214.03063964844</ele>
        <time>2015-03-14T07:58:32Z</time>
      </trkpt>
      <trkpt lat="44.30501" lon="0.86094">
        <ele>214.51123046875</ele>
        <time>2015-03-14T07:58:46Z</time>
      </trkpt>
      <trkpt lat="44.30506" lon="0.86086">
        <ele>214.03063964844</ele>
        <time>2015-03-14T07:58:52Z</time>
      </trkpt>
      <trkpt lat="44.30518" lon="0.86047">
        <ele>214.03063964844</ele>
        <time>2015-03-14T07:59:21Z</time>
      </trkpt>
      <trkpt lat="44.30528" lon="0.86016">
        <ele>211.62744140625</ele>
        <time>2015-03-14T07:59:43Z</time>
      </trkpt>
      <trkpt lat="44.30536" lon="0.86004">
        <ele>211.14672851562</ele>
        <time>2015-03-14T07:59:57Z</time>
      </trkpt>
      <trkpt lat="44.30551" lon="0.85985">
        <ele>212.10803222656</ele>
        <time>2015-03-14T08:00:17Z</time>
      </trkpt>
      <trkpt lat="44.30562" lon="0.85977">
        <ele>212.10803222656</ele>
        <time>2015-03-14T08:00:28Z</time>
      </trkpt>
      <trkpt lat="44.30591" lon="0.85965">
        <ele>214.03063964844</ele>
        <time>2015-03-14T08:00:55Z</time>
      </trkpt>
      <trkpt lat="44.30604" lon="0.85962">
        <ele>214.51123046875</ele>
        <time>2015-03-14T08:01:10Z</time>
      </trkpt>
      <trkpt lat="44.30629" lon="0.85948">
        <ele>214.03063964844</ele>
        <time>2015-03-14T08:01:35Z</time>
      </trkpt>
      <trkpt lat="44.30637" lon="0.85946">
        <ele>213.55004882812</ele>
        <time>2015-03-14T08:01:42Z</time>
      </trkpt>
      <trkpt lat="44.30665" lon="0.85933">
        <ele>212.10803222656</ele>
        <time>2015-03-14T08:02:07Z</time>
      </trkpt>
      <trkpt lat="44.3069" lon="0.85918">
        <ele>211.14672851562</ele>
        <time>2015-03-14T08:02:29Z</time>
      </trkpt>
      <trkpt lat="44.30694" lon="0.85905">
        <ele>209.70483398438</ele>
        <time>2015-03-14T08:02:39Z</time>
      </trkpt>
      <trkpt lat="44.30691" lon="0.85898">
        <ele>209.22412109375</ele>
        <time>2015-03-14T08:02:43Z</time>
      </trkpt>
      <trkpt lat="44.30704" lon="0.85876">
        <ele>205.37878417969</ele>
        <time>2015-03-14T08:03:02Z</time>
      </trkpt>
      <trkpt lat="44.30728" lon="0.85848">
        <ele>202.97546386719</ele>
        <time>2015-03-14T08:03:28Z</time>
      </trkpt>
      <trkpt lat="44.30735" lon="0.85835">
        <ele>202.49487304688</ele>
        <time>2015-03-14T08:03:46Z</time>
      </trkpt>
      <trkpt lat="44.30743" lon="0.85828">
        <ele>203.93688964844</ele>
        <time>2015-03-14T08:04:06Z</time>
      </trkpt>
      <trkpt lat="44.30764" lon="0.85807">
        <ele>203.93688964844</ele>
        <time>2015-03-14T08:04:29Z</time>
      </trkpt>
      <trkpt lat="44.30787" lon="0.85779">
        <ele>202.49487304688</ele>
        <time>2015-03-14T08:04:56Z</time>
      </trkpt>
      <trkpt lat="44.308" lon="0.85764">
        <ele>201.05285644531</ele>
        <time>2015-03-14T08:05:09Z</time>
      </trkpt>
      <trkpt lat="44.30802" lon="0.8576">
        <ele>200.572265625</ele>
        <time>2015-03-14T08:05:12Z</time>
      </trkpt>
      <trkpt lat="44.3081" lon="0.85732">
        <ele>197.68823242188</ele>
        <time>2015-03-14T08:05:32Z</time>
      </trkpt>
      <trkpt lat="44.30803" lon="0.85702">
        <ele>194.32373046875</ele>
        <time>2015-03-14T08:05:51Z</time>
      </trkpt>
      <trkpt lat="44.30792" lon="0.8567">
        <ele>194.32373046875</ele>
        <time>2015-03-14T08:06:12Z</time>
      </trkpt>
      <trkpt lat="44.30781" lon="0.85637">
        <ele>191.92028808594</ele>
        <time>2015-03-14T08:06:36Z</time>
      </trkpt>
      <trkpt lat="44.30772" lon="0.8561">
        <ele>191.92028808594</ele>
        <time>2015-03-14T08:06:56Z</time>
      </trkpt>
      <trkpt lat="44.30765" lon="0.85579">
        <ele>195.28491210938</ele>
        <time>2015-03-14T08:07:17Z</time>
      </trkpt>
      <trkpt lat="44.30756" lon="0.85556">
        <ele>197.68823242188</ele>
        <time>2015-03-14T08:07:38Z</time>
      </trkpt>
      <trkpt lat="44.30745" lon="0.8554">
        <ele>199.13012695312</ele>
        <time>2015-03-14T08:07:56Z</time>
      </trkpt>
      <trkpt lat="44.30737" lon="0.85523">
        <ele>200.572265625</ele>
        <time>2015-03-14T08:08:10Z</time>
      </trkpt>
      <trkpt lat="44.30733" lon="0.85514">
        <ele>199.61083984375</ele>
        <time>2015-03-14T08:08:19Z</time>
      </trkpt>
      <trkpt lat="44.30731" lon="0.85513">
        <ele>200.09167480469</ele>
        <time>2015-03-14T08:08:21Z</time>
      </trkpt>
      <trkpt lat="44.3072" lon="0.85494">
        <ele>198.1689453125</ele>
        <time>2015-03-14T08:08:43Z</time>
      </trkpt>
      <trkpt lat="44.30713" lon="0.85481">
        <ele>198.1689453125</ele>
        <time>2015-03-14T08:08:54Z</time>
      </trkpt>
      <trkpt lat="44.30711" lon="0.85469">
        <ele>200.09167480469</ele>
        <time>2015-03-14T08:09:02Z</time>
      </trkpt>
      <trkpt lat="44.30706" lon="0.85451">
        <ele>201.05285644531</ele>
        <time>2015-03-14T08:09:12Z</time>
      </trkpt>
      <trkpt lat="44.30704" lon="0.85445">
        <ele>202.01428222656</ele>
        <time>2015-03-14T08:09:16Z</time>
      </trkpt>
      <trkpt lat="44.307" lon="0.85434">
        <ele>203.45617675781</ele>
        <time>2015-03-14T08:09:22Z</time>
      </trkpt>
      <trkpt lat="44.30698" lon="0.85427">
        <ele>203.45617675781</ele>
        <time>2015-03-14T08:09:25Z</time>
      </trkpt>
      <trkpt lat="44.30686" lon="0.85408">
        <ele>204.41748046875</ele>
        <time>2015-03-14T08:09:41Z</time>
      </trkpt>
      <trkpt lat="44.30685" lon="0.85404">
        <ele>204.41748046875</ele>
        <time>2015-03-14T08:09:43Z</time>
      </trkpt>
      <trkpt lat="44.30673" lon="0.85378">
        <ele>201.53356933594</ele>
        <time>2015-03-14T08:10:06Z</time>
      </trkpt>
      <trkpt lat="44.30665" lon="0.85361">
        <ele>198.64953613281</ele>
        <time>2015-03-14T08:10:23Z</time>
      </trkpt>
      <trkpt lat="44.30649" lon="0.85353">
        <ele>196.72692871094</ele>
        <time>2015-03-14T08:10:39Z</time>
      </trkpt>
      <trkpt lat="44.30626" lon="0.85345">
        <ele>195.765625</ele>
        <time>2015-03-14T08:11:02Z</time>
      </trkpt>
      <trkpt lat="44.30606" lon="0.85329">
        <ele>195.28491210938</ele>
        <time>2015-03-14T08:11:23Z</time>
      </trkpt>
      <trkpt lat="44.30596" lon="0.85304">
        <ele>190.958984375</ele>
        <time>2015-03-14T08:11:44Z</time>
      </trkpt>
      <trkpt lat="44.30589" lon="0.85269">
        <ele>185.67175292969</ele>
        <time>2015-03-14T08:12:11Z</time>
      </trkpt>
      <trkpt lat="44.30589" lon="0.85267">
        <ele>185.19116210938</ele>
        <time>2015-03-14T08:12:13Z</time>
      </trkpt>
      <trkpt lat="44.30592" lon="0.85258">
        <ele>189.99768066406</ele>
        <time>2015-03-14T08:12:25Z</time>
      </trkpt>
      <trkpt lat="44.30592" lon="0.85246">
        <ele>194.32373046875</ele>
        <time>2015-03-14T08:12:35Z</time>
      </trkpt>
      <trkpt lat="44.30594" lon="0.85244">
        <ele>195.765625</ele>
        <time>2015-03-14T08:12:39Z</time>
      </trkpt>
      <trkpt lat="44.30584" lon="0.85218">
        <ele>199.13012695312</ele>
        <time>2015-03-14T08:12:59Z</time>
      </trkpt>
      <trkpt lat="44.30583" lon="0.85199">
        <ele>198.1689453125</ele>
        <time>2015-03-14T08:13:20Z</time>
      </trkpt>
      <trkpt lat="44.30587" lon="0.85187">
        <ele>199.13012695312</ele>
        <time>2015-03-14T08:13:32Z</time>
      </trkpt>
      <trkpt lat="44.30593" lon="0.85173">
        <ele>200.572265625</ele>
        <time>2015-03-14T08:13:44Z</time>
      </trkpt>
      <trkpt lat="44.30595" lon="0.8517">
        <ele>201.05285644531</ele>
        <time>2015-03-14T08:13:47Z</time>
      </trkpt>
      <trkpt lat="44.30606" lon="0.85151">
        <ele>195.28491210938</ele>
        <time>2015-03-14T08:14:05Z</time>
      </trkpt>
      <trkpt lat="44.30613" lon="0.85132">
        <ele>194.32373046875</ele>
        <time>2015-03-14T08:14:18Z</time>
      </trkpt>
      <trkpt lat="44.30614" lon="0.85127">
        <ele>194.32373046875</ele>
        <time>2015-03-14T08:14:22Z</time>
      </trkpt>
      <trkpt lat="44.3062" lon="0.85112">
        <ele>194.32373046875</ele>
        <time>2015-03-14T08:14:35Z</time>
      </trkpt>
      <trkpt lat="44.3062" lon="0.85108">
        <ele>193.84301757812</ele>
        <time>2015-03-14T08:14:38Z</time>
      </trkpt>
      <trkpt lat="44.30622" lon="0.85104">
        <ele>193.84301757812</ele>
        <time>2015-03-14T08:14:41Z</time>
      </trkpt>
      <trkpt lat="44.30631" lon="0.85073">
        <ele>190.47839355469</ele>
        <time>2015-03-14T08:15:04Z</time>
      </trkpt>
      <trkpt lat="44.30633" lon="0.85051">
        <ele>189.03637695312</ele>
        <time>2015-03-14T08:15:24Z</time>
      </trkpt>
      <trkpt lat="44.30634" lon="0.85041">
        <ele>189.03637695312</ele>
        <time>2015-03-14T08:15:37Z</time>
      </trkpt>
      <trkpt lat="44.30634" lon="0.85025">
        <ele>190.47839355469</ele>
        <time>2015-03-14T08:15:57Z</time>
      </trkpt>
      <trkpt lat="44.30635" lon="0.85005">
        <ele>191.43957519531</ele>
        <time>2015-03-14T08:16:16Z</time>
      </trkpt>
      <trkpt lat="44.30636" lon="0.84994">
        <ele>192.40112304688</ele>
        <time>2015-03-14T08:16:28Z</time>
      </trkpt>
      <trkpt lat="44.30636" lon="0.84994">
        <ele>192.40112304688</ele>
        <time>2015-03-14T08:16:29Z</time>
      </trkpt>
      <trkpt lat="44.30645" lon="0.84986">
        <ele>192.40112304688</ele>
        <time>2015-03-14T08:16:39Z</time>
      </trkpt>
      <trkpt lat="44.30651" lon="0.84983">
        <ele>194.32373046875</ele>
        <time>2015-03-14T08:16:44Z</time>
      </trkpt>
      <trkpt lat="44.30665" lon="0.84978">
        <ele>194.32373046875</ele>
        <time>2015-03-14T08:16:57Z</time>
      </trkpt>
      <trkpt lat="44.30676" lon="0.84974">
        <ele>195.28491210938</ele>
        <time>2015-03-14T08:17:09Z</time>
      </trkpt>
      <trkpt lat="44.30689" lon="0.84967">
        <ele>195.28491210938</ele>
        <time>2015-03-14T08:17:23Z</time>
      </trkpt>
      <trkpt lat="44.30708" lon="0.84955">
        <ele>195.765625</ele>
        <time>2015-03-14T08:17:40Z</time>
      </trkpt>
      <trkpt lat="44.30734" lon="0.84942">
        <ele>195.765625</ele>
        <time>2015-03-14T08:18:03Z</time>
      </trkpt>
      <trkpt lat="44.30745" lon="0.84937">
        <ele>194.80432128906</ele>
        <time>2015-03-14T08:18:13Z</time>
      </trkpt>
      <trkpt lat="44.30758" lon="0.84933">
        <ele>191.92028808594</ele>
        <time>2015-03-14T08:18:27Z</time>
      </trkpt>
      <trkpt lat="44.30771" lon="0.84931">
        <ele>193.3623046875</ele>
        <time>2015-03-14T08:18:38Z</time>
      </trkpt>
      <trkpt lat="44.30773" lon="0.84931">
        <ele>192.88171386719</ele>
        <time>2015-03-14T08:18:40Z</time>
      </trkpt>
      <trkpt lat="44.30793" lon="0.84932">
        <ele>192.40112304688</ele>
        <time>2015-03-14T08:18:59Z</time>
      </trkpt>
      <trkpt lat="44.30811" lon="0.84936">
        <ele>192.40112304688</ele>
        <time>2015-03-14T08:19:15Z</time>
      </trkpt>
      <trkpt lat="44.30815" lon="0.84939">
        <ele>190.958984375</ele>
        <time>2015-03-14T08:19:19Z</time>
      </trkpt>
      <trkpt lat="44.30818" lon="0.8494">
        <ele>190.47839355469</ele>
        <time>2015-03-14T08:19:22Z</time>
      </trkpt>
      <trkpt lat="44.30835" lon="0.84942">
        <ele>188.55578613281</ele>
        <time>2015-03-14T08:19:40Z</time>
      </trkpt>
      <trkpt lat="44.30855" lon="0.84946">
        <ele>188.55578613281</ele>
        <time>2015-03-14T08:19:58Z</time>
      </trkpt>
      <trkpt lat="44.30864" lon="0.84947">
        <ele>186.63317871094</ele>
        <time>2015-03-14T08:20:07Z</time>
      </trkpt>
      <trkpt lat="44.3088" lon="0.84939">
        <ele>187.11376953125</ele>
        <time>2015-03-14T08:20:23Z</time>
      </trkpt>
      <trkpt lat="44.309" lon="0.84938">
        <ele>192.40112304688</ele>
        <time>2015-03-14T08:20:40Z</time>
      </trkpt>
      <trkpt lat="44.30901" lon="0.84938">
        <ele>192.40112304688</ele>
        <time>2015-03-14T08:20:41Z</time>
      </trkpt>
      <trkpt lat="44.30906" lon="0.84937">
        <ele>194.32373046875</ele>
        <time>2015-03-14T08:20:46Z</time>
      </trkpt>
      <trkpt lat="44.30924" lon="0.84932">
        <ele>196.24633789062</ele>
        <time>2015-03-14T08:21:05Z</time>
      </trkpt>
      <trkpt lat="44.30931" lon="0.84917">
        <ele>191.43957519531</ele>
        <time>2015-03-14T08:21:21Z</time>
      </trkpt>
      <trkpt lat="44.30942" lon="0.84911">
        <ele>188.55578613281</ele>
        <time>2015-03-14T08:21:41Z</time>
      </trkpt>
      <trkpt lat="44.30944" lon="0.84912">
        <ele>187.11376953125</ele>
        <time>2015-03-14T08:21:58Z</time>
      </trkpt>
      <trkpt lat="44.30949" lon="0.84914">
        <ele>186.63317871094</ele>
        <time>2015-03-14T08:22:15Z</time>
      </trkpt>
      <trkpt lat="44.30965" lon="0.84922">
        <ele>185.19116210938</ele>
        <time>2015-03-14T08:22:37Z</time>
      </trkpt>
      <trkpt lat="44.30982" lon="0.84927">
        <ele>183.26843261719</ele>
        <time>2015-03-14T08:22:58Z</time>
      </trkpt>
      <trkpt lat="44.30993" lon="0.84932">
        <ele>181.82641601562</ele>
        <time>2015-03-14T08:23:16Z</time>
      </trkpt>
      <trkpt lat="44.31001" lon="0.84937">
        <ele>183.7490234375</ele>
        <time>2015-03-14T08:23:31Z</time>
      </trkpt>
      <trkpt lat="44.31012" lon="0.84939">
        <ele>181.34582519531</ele>
        <time>2015-03-14T08:23:50Z</time>
      </trkpt>
      <trkpt lat="44.31025" lon="0.84948">
        <ele>178.4619140625</ele>
        <time>2015-03-14T08:24:08Z</time>
      </trkpt>
      <trkpt lat="44.31043" lon="0.84966">
        <ele>176.05859375</ele>
        <time>2015-03-14T08:24:35Z</time>
      </trkpt>
      <trkpt lat="44.31053" lon="0.84984">
        <ele>174.61657714844</ele>
        <time>2015-03-14T08:24:54Z</time>
      </trkpt>
      <trkpt lat="44.31058" lon="0.84991">
        <ele>173.17468261719</ele>
        <time>2015-03-14T08:25:15Z</time>
      </trkpt>
      <trkpt lat="44.31066" lon="0.85015">
        <ele>175.09729003906</ele>
        <time>2015-03-14T08:25:35Z</time>
      </trkpt>
      <trkpt lat="44.31071" lon="0.85032">
        <ele>174.13586425781</ele>
        <time>2015-03-14T08:25:56Z</time>
      </trkpt>
      <trkpt lat="44.31074" lon="0.85037">
        <ele>173.6552734375</ele>
        <time>2015-03-14T08:26:02Z</time>
      </trkpt>
      <trkpt lat="44.31087" lon="0.85055">
        <ele>166.92602539062</ele>
        <time>2015-03-14T08:26:25Z</time>
      </trkpt>
      <trkpt lat="44.31105" lon="0.85057">
        <ele>164.04211425781</ele>
        <time>2015-03-14T08:26:47Z</time>
      </trkpt>
      <trkpt lat="44.31128" lon="0.85056">
        <ele>160.67749023438</ele>
        <time>2015-03-14T08:27:10Z</time>
      </trkpt>
      <trkpt lat="44.31144" lon="0.85057">
        <ele>157.79357910156</ele>
        <time>2015-03-14T08:27:26Z</time>
      </trkpt>
      <trkpt lat="44.31158" lon="0.85056">
        <ele>153.94836425781</ele>
        <time>2015-03-14T08:27:42Z</time>
      </trkpt>
      <trkpt lat="44.31171" lon="0.8505">
        <ele>151.544921875</ele>
        <time>2015-03-14T08:27:59Z</time>
      </trkpt>
      <trkpt lat="44.31186" lon="0.85042">
        <ele>149.62231445312</ele>
        <time>2015-03-14T08:28:16Z</time>
      </trkpt>
      <trkpt lat="44.31192" lon="0.85038">
        <ele>148.18041992188</ele>
        <time>2015-03-14T08:28:22Z</time>
      </trkpt>
      <trkpt lat="44.31216" lon="0.85033">
        <ele>143.85437011719</ele>
        <time>2015-03-14T08:28:42Z</time>
      </trkpt>
      <trkpt lat="44.31243" lon="0.85021">
        <ele>139.52844238281</ele>
        <time>2015-03-14T08:29:09Z</time>
      </trkpt>
      <trkpt lat="44.31264" lon="0.85001">
        <ele>136.16394042969</ele>
        <time>2015-03-14T08:29:39Z</time>
      </trkpt>
      <trkpt lat="44.31283" lon="0.84985">
        <ele>132.79931640625</ele>
        <time>2015-03-14T08:30:02Z</time>
      </trkpt>
      <trkpt lat="44.31302" lon="0.84968">
        <ele>131.35729980469</ele>
        <time>2015-03-14T08:30:23Z</time>
      </trkpt>
      <trkpt lat="44.3132" lon="0.84947">
        <ele>129.43469238281</ele>
        <time>2015-03-14T08:30:45Z</time>
      </trkpt>
      <trkpt lat="44.31329" lon="0.84934">
        <ele>126.55065917969</ele>
        <time>2015-03-14T08:31:03Z</time>
      </trkpt>
      <trkpt lat="44.31349" lon="0.8491">
        <ele>123.66674804688</ele>
        <time>2015-03-14T08:31:30Z</time>
      </trkpt>
      <trkpt lat="44.31357" lon="0.849">
        <ele>123.66674804688</ele>
        <time>2015-03-14T08:31:41Z</time>
      </trkpt>
      <trkpt lat="44.31359" lon="0.84894">
        <ele>123.66674804688</ele>
        <time>2015-03-14T08:31:46Z</time>
      </trkpt>
      <trkpt lat="44.31364" lon="0.84893">
        <ele>122.70544433594</ele>
        <time>2015-03-14T08:31:50Z</time>
      </trkpt>
      <trkpt lat="44.3137" lon="0.84888">
        <ele>123.66674804688</ele>
        <time>2015-03-14T08:32:10Z</time>
      </trkpt>
      <trkpt lat="44.31392" lon="0.84873">
        <ele>120.78283691406</ele>
        <time>2015-03-14T08:32:35Z</time>
      </trkpt>
      <trkpt lat="44.31416" lon="0.84861">
        <ele>115.97619628906</ele>
        <time>2015-03-14T08:33:00Z</time>
      </trkpt>
      <trkpt lat="44.31432" lon="0.84857">
        <ele>113.57299804688</ele>
        <time>2015-03-14T08:33:22Z</time>
      </trkpt>
      <trkpt lat="44.31445" lon="0.8486">
        <ele>113.57299804688</ele>
        <time>2015-03-14T08:33:38Z</time>
      </trkpt>
      <trkpt lat="44.31448" lon="0.8486">
        <ele>114.05358886719</ele>
        <time>2015-03-14T08:33:41Z</time>
      </trkpt>
      <trkpt lat="44.31464" lon="0.84861">
        <ele>114.05358886719</ele>
        <time>2015-03-14T08:33:59Z</time>
      </trkpt>
      <trkpt lat="44.3148" lon="0.8486">
        <ele>115.01489257812</ele>
        <time>2015-03-14T08:34:16Z</time>
      </trkpt>
      <trkpt lat="44.31486" lon="0.84858">
        <ele>114.5341796875</ele>
        <time>2015-03-14T08:34:22Z</time>
      </trkpt>
      <trkpt lat="44.31497" lon="0.84846">
        <ele>112.61157226562</ele>
        <time>2015-03-14T08:34:40Z</time>
      </trkpt>
      <trkpt lat="44.31512" lon="0.84833">
        <ele>112.13098144531</ele>
        <time>2015-03-14T08:35:01Z</time>
      </trkpt>
      <trkpt lat="44.31529" lon="0.84806">
        <ele>110.20825195312</ele>
        <time>2015-03-14T08:35:29Z</time>
      </trkpt>
      <trkpt lat="44.31544" lon="0.84786">
        <ele>110.68884277344</ele>
        <time>2015-03-14T08:35:53Z</time>
      </trkpt>
      <trkpt lat="44.3155" lon="0.84772">
        <ele>109.72766113281</ele>
        <time>2015-03-14T08:36:10Z</time>
      </trkpt>
      <trkpt lat="44.31556" lon="0.84757">
        <ele>111.16955566406</ele>
        <time>2015-03-14T08:36:28Z</time>
      </trkpt>
      <trkpt lat="44.31566" lon="0.8474">
        <ele>112.61157226562</ele>
        <time>2015-03-14T08:36:49Z</time>
      </trkpt>
      <trkpt lat="44.31584" lon="0.84733">
        <ele>113.57299804688</ele>
        <time>2015-03-14T08:37:08Z</time>
      </trkpt>
      <trkpt lat="44.31603" lon="0.84729">
        <ele>112.61157226562</ele>
        <time>2015-03-14T08:37:28Z</time>
      </trkpt>
      <trkpt lat="44.31622" lon="0.84718">
        <ele>113.57299804688</ele>
        <time>2015-03-14T08:37:47Z</time>
      </trkpt>
      <trkpt lat="44.31633" lon="0.8471">
        <ele>115.01489257812</ele>
        <time>2015-03-14T08:38:05Z</time>
      </trkpt>
      <trkpt lat="44.31645" lon="0.847">
        <ele>115.01489257812</ele>
        <time>2015-03-14T08:38:25Z</time>
      </trkpt>
      <trkpt lat="44.3166" lon="0.84691">
        <ele>116.45678710938</ele>
        <time>2015-03-14T08:38:45Z</time>
      </trkpt>
      <trkpt lat="44.31675" lon="0.84687">
        <ele>118.86010742188</ele>
        <time>2015-03-14T08:39:07Z</time>
      </trkpt>
      <trkpt lat="44.31684" lon="0.84681">
        <ele>119.82141113281</ele>
        <time>2015-03-14T08:39:29Z</time>
      </trkpt>
      <trkpt lat="44.31683" lon="0.84665">
        <ele>118.86010742188</ele>
        <time>2015-03-14T08:39:49Z</time>
      </trkpt>
      <trkpt lat="44.31677" lon="0.8466">
        <ele>117.89880371094</ele>
        <time>2015-03-14T08:40:07Z</time>
      </trkpt>
      <trkpt lat="44.31673" lon="0.84656">
        <ele>117.41821289062</ele>
        <time>2015-03-14T08:40:15Z</time>
      </trkpt>
      <trkpt lat="44.31663" lon="0.84644">
        <ele>118.37939453125</ele>
        <time>2015-03-14T08:40:29Z</time>
      </trkpt>
      <trkpt lat="44.31655" lon="0.84634">
        <ele>118.86010742188</ele>
        <time>2015-03-14T08:40:44Z</time>
      </trkpt>
      <trkpt lat="44.31647" lon="0.84624">
        <ele>119.82141113281</ele>
        <time>2015-03-14T08:40:58Z</time>
      </trkpt>
      <trkpt lat="44.31636" lon="0.84612">
        <ele>120.30212402344</ele>
        <time>2015-03-14T08:41:15Z</time>
      </trkpt>
      <trkpt lat="44.31635" lon="0.84609">
        <ele>120.30212402344</ele>
        <time>2015-03-14T08:41:17Z</time>
      </trkpt>
      <trkpt lat="44.31631" lon="0.84599">
        <ele>119.3408203125</ele>
        <time>2015-03-14T08:41:31Z</time>
      </trkpt>
      <trkpt lat="44.31626" lon="0.84593">
        <ele>119.82141113281</ele>
        <time>2015-03-14T08:41:42Z</time>
      </trkpt>
      <trkpt lat="44.31619" lon="0.84583">
        <ele>120.78283691406</ele>
        <time>2015-03-14T08:41:58Z</time>
      </trkpt>
      <trkpt lat="44.31611" lon="0.84575">
        <ele>120.78283691406</ele>
        <time>2015-03-14T08:42:12Z</time>
      </trkpt>
      <trkpt lat="44.31607" lon="0.84569">
        <ele>122.22473144531</ele>
        <time>2015-03-14T08:42:25Z</time>
      </trkpt>
      <trkpt lat="44.31605" lon="0.84561">
        <ele>123.18615722656</ele>
        <time>2015-03-14T08:42:40Z</time>
      </trkpt>
      <trkpt lat="44.31603" lon="0.84558">
        <ele>123.18615722656</ele>
        <time>2015-03-14T08:42:43Z</time>
      </trkpt>
      <trkpt lat="44.316" lon="0.84545">
        <ele>123.66674804688</ele>
        <time>2015-03-14T08:42:57Z</time>
      </trkpt>
      <trkpt lat="44.31596" lon="0.84534">
        <ele>123.66674804688</ele>
        <time>2015-03-14T08:43:13Z</time>
      </trkpt>
      <trkpt lat="44.31594" lon="0.84523">
        <ele>125.58935546875</ele>
        <time>2015-03-14T08:43:28Z</time>
      </trkpt>
      <trkpt lat="44.31593" lon="0.84512">
        <ele>127.51196289062</ele>
        <time>2015-03-14T08:43:45Z</time>
      </trkpt>
      <trkpt lat="44.31588" lon="0.84498">
        <ele>128.47338867188</ele>
        <time>2015-03-14T08:44:04Z</time>
      </trkpt>
      <trkpt lat="44.31583" lon="0.84483">
        <ele>130.87670898438</ele>
        <time>2015-03-14T08:44:20Z</time>
      </trkpt>
      <trkpt lat="44.3158" lon="0.84477">
        <ele>127.99255371094</ele>
        <time>2015-03-14T08:44:32Z</time>
      </trkpt>
      <trkpt lat="44.31577" lon="0.84465">
        <ele>129.43469238281</ele>
        <time>2015-03-14T08:44:49Z</time>
      </trkpt>
      <trkpt lat="44.31575" lon="0.84456">
        <ele>128.9541015625</ele>
        <time>2015-03-14T08:45:01Z</time>
      </trkpt>
      <trkpt lat="44.31571" lon="0.8444">
        <ele>131.35729980469</ele>
        <time>2015-03-14T08:45:18Z</time>
      </trkpt>
      <trkpt lat="44.31569" lon="0.84433">
        <ele>133.76049804688</ele>
        <time>2015-03-14T08:45:32Z</time>
      </trkpt>
      <trkpt lat="44.31564" lon="0.84429">
        <ele>134.2412109375</ele>
        <time>2015-03-14T08:45:47Z</time>
      </trkpt>
      <trkpt lat="44.31546" lon="0.84442">
        <ele>136.64465332031</ele>
        <time>2015-03-14T08:46:17Z</time>
      </trkpt>
      <trkpt lat="44.31543" lon="0.84447">
        <ele>138.08654785156</ele>
        <time>2015-03-14T08:46:43Z</time>
      </trkpt>
      <trkpt lat="44.31534" lon="0.84461">
        <ele>142.89306640625</ele>
        <time>2015-03-14T08:47:03Z</time>
      </trkpt>
      <trkpt lat="44.31524" lon="0.84469">
        <ele>144.81579589844</ele>
        <time>2015-03-14T08:47:22Z</time>
      </trkpt>
      <trkpt lat="44.31518" lon="0.84475">
        <ele>147.69970703125</ele>
        <time>2015-03-14T08:47:37Z</time>
      </trkpt>
      <trkpt lat="44.31511" lon="0.84481">
        <ele>152.50634765625</ele>
        <time>2015-03-14T08:47:57Z</time>
      </trkpt>
      <trkpt lat="44.31499" lon="0.8449">
        <ele>156.83215332031</ele>
        <time>2015-03-14T08:48:19Z</time>
      </trkpt>
      <trkpt lat="44.31491" lon="0.84487">
        <ele>158.27416992188</ele>
        <time>2015-03-14T08:48:34Z</time>
      </trkpt>
      <trkpt lat="44.31489" lon="0.84483">
        <ele>158.27416992188</ele>
        <time>2015-03-14T08:48:48Z</time>
      </trkpt>
      <trkpt lat="44.31492" lon="0.84477">
        <ele>158.27416992188</ele>
        <time>2015-03-14T08:49:05Z</time>
      </trkpt>
      <trkpt lat="44.31498" lon="0.84468">
        <ele>160.19689941406</ele>
        <time>2015-03-14T08:49:23Z</time>
      </trkpt>
      <trkpt lat="44.31503" lon="0.84459">
        <ele>163.08081054688</ele>
        <time>2015-03-14T08:49:49Z</time>
      </trkpt>
      <trkpt lat="44.31512" lon="0.84442">
        <ele>165.48413085938</ele>
        <time>2015-03-14T08:50:12Z</time>
      </trkpt>
      <trkpt lat="44.31516" lon="0.84436">
        <ele>165.96472167969</ele>
        <time>2015-03-14T08:50:21Z</time>
      </trkpt>
      <trkpt lat="44.31521" lon="0.84423">
        <ele>167.88732910156</ele>
        <time>2015-03-14T08:50:38Z</time>
      </trkpt>
      <trkpt lat="44.31526" lon="0.84406">
        <ele>171.73266601562</ele>
        <time>2015-03-14T08:50:58Z</time>
      </trkpt>
      <trkpt lat="44.31534" lon="0.84388">
        <ele>167.88732910156</ele>
        <time>2015-03-14T08:51:19Z</time>
      </trkpt>
      <trkpt lat="44.31542" lon="0.84374">
        <ele>168.84875488281</ele>
        <time>2015-03-14T08:51:39Z</time>
      </trkpt>
      <trkpt lat="44.31532" lon="0.84367">
        <ele>172.21325683594</ele>
        <time>2015-03-14T08:51:55Z</time>
      </trkpt>
      <trkpt lat="44.31519" lon="0.84375">
        <ele>177.02001953125</ele>
        <time>2015-03-14T08:52:12Z</time>
      </trkpt>
      <trkpt lat="44.31512" lon="0.84378">
        <ele>179.42321777344</ele>
        <time>2015-03-14T08:52:33Z</time>
      </trkpt>
      <trkpt lat="44.31509" lon="0.84373">
        <ele>179.42321777344</ele>
        <time>2015-03-14T08:52:40Z</time>
      </trkpt>
      <trkpt lat="44.31504" lon="0.84364">
        <ele>181.82641601562</ele>
        <time>2015-03-14T08:52:54Z</time>
      </trkpt>
      <trkpt lat="44.315" lon="0.84354">
        <ele>186.63317871094</ele>
        <time>2015-03-14T08:53:13Z</time>
      </trkpt>
      <trkpt lat="44.31499" lon="0.84345">
        <ele>187.11376953125</ele>
        <time>2015-03-14T08:53:27Z</time>
      </trkpt>
      <trkpt lat="44.31499" lon="0.84333">
        <ele>187.11376953125</ele>
        <time>2015-03-14T08:53:44Z</time>
      </trkpt>
      <trkpt lat="44.31498" lon="0.84325">
        <ele>186.15246582031</ele>
        <time>2015-03-14T08:53:59Z</time>
      </trkpt>
      <trkpt lat="44.31499" lon="0.84317">
        <ele>185.19116210938</ele>
        <time>2015-03-14T08:54:14Z</time>
      </trkpt>
      <trkpt lat="44.31499" lon="0.84305">
        <ele>185.19116210938</ele>
        <time>2015-03-14T08:54:29Z</time>
      </trkpt>
      <trkpt lat="44.31497" lon="0.84291">
        <ele>184.22985839844</ele>
        <time>2015-03-14T08:54:46Z</time>
      </trkpt>
      <trkpt lat="44.31497" lon="0.84269">
        <ele>187.11376953125</ele>
        <time>2015-03-14T08:55:05Z</time>
      </trkpt>
      <trkpt lat="44.31492" lon="0.8425">
        <ele>187.11376953125</ele>
        <time>2015-03-14T08:55:24Z</time>
      </trkpt>
      <trkpt lat="44.31489" lon="0.84238">
        <ele>186.63317871094</ele>
        <time>2015-03-14T08:55:40Z</time>
      </trkpt>
      <trkpt lat="44.31485" lon="0.84221">
        <ele>186.63317871094</ele>
        <time>2015-03-14T08:56:00Z</time>
      </trkpt>
      <trkpt lat="44.31482" lon="0.84214">
        <ele>188.07507324219</ele>
        <time>2015-03-14T08:56:23Z</time>
      </trkpt>
      <trkpt lat="44.31482" lon="0.84212">
        <ele>188.07507324219</ele>
        <time>2015-03-14T08:56:42Z</time>
      </trkpt>
      <trkpt lat="44.31486" lon="0.84211">
        <ele>186.63317871094</ele>
        <time>2015-03-14T08:57:00Z</time>
      </trkpt>
      <trkpt lat="44.3148" lon="0.84209">
        <ele>188.55578613281</ele>
        <time>2015-03-14T08:57:35Z</time>
      </trkpt>
      <trkpt lat="44.3148" lon="0.8421">
        <ele>189.03637695312</ele>
        <time>2015-03-14T08:58:04Z</time>
      </trkpt>
      <trkpt lat="44.31481" lon="0.8421">
        <ele>189.03637695312</ele>
        <time>2015-03-14T08:58:29Z</time>
      </trkpt>
      <trkpt lat="44.31481" lon="0.84213">
        <ele>189.51696777344</ele>
        <time>2015-03-14T08:59:00Z</time>
      </trkpt>
      <trkpt lat="44.3148" lon="0.84214">
        <ele>190.47839355469</ele>
        <time>2015-03-14T09:00:10Z</time>
      </trkpt>
      <trkpt lat="44.31481" lon="0.84216">
        <ele>191.43957519531</ele>
        <time>2015-03-14T09:04:28Z</time>
      </trkpt>
      <trkpt lat="44.31481" lon="0.84213">
        <ele>192.40112304688</ele>
        <time>2015-03-14T09:05:13Z</time>
      </trkpt>
      <trkpt lat="44.3148" lon="0.84214">
        <ele>192.88171386719</ele>
        <time>2015-03-14T09:06:08Z</time>
      </trkpt>
      <trkpt lat="44.31481" lon="0.84213">
        <ele>192.88171386719</ele>
        <time>2015-03-14T09:06:41Z</time>
      </trkpt>
      <trkpt lat="44.3148" lon="0.84213">
        <ele>192.40112304688</ele>
        <time>2015-03-14T09:08:04Z</time>
      </trkpt>
      <trkpt lat="44.31479" lon="0.84212">
        <ele>191.92028808594</ele>
        <time>2015-03-14T09:08:08Z</time>
      </trkpt>
      <trkpt lat="44.3147" lon="0.84194">
        <ele>194.32373046875</ele>
        <time>2015-03-14T09:08:23Z</time>
      </trkpt>
      <trkpt lat="44.31466" lon="0.84181">
        <ele>193.3623046875</ele>
        <time>2015-03-14T09:08:33Z</time>
      </trkpt>
      <trkpt lat="44.31461" lon="0.84166">
        <ele>191.92028808594</ele>
        <time>2015-03-14T09:08:47Z</time>
      </trkpt>
      <trkpt lat="44.31459" lon="0.84162">
        <ele>191.43957519531</ele>
        <time>2015-03-14T09:08:50Z</time>
      </trkpt>
      <trkpt lat="44.31463" lon="0.84146">
        <ele>191.92028808594</ele>
        <time>2015-03-14T09:09:07Z</time>
      </trkpt>
      <trkpt lat="44.31463" lon="0.84135">
        <ele>193.3623046875</ele>
        <time>2015-03-14T09:09:17Z</time>
      </trkpt>
      <trkpt lat="44.31453" lon="0.84124">
        <ele>195.28491210938</ele>
        <time>2015-03-14T09:09:30Z</time>
      </trkpt>
      <trkpt lat="44.31442" lon="0.84112">
        <ele>196.24633789062</ele>
        <time>2015-03-14T09:09:45Z</time>
      </trkpt>
      <trkpt lat="44.3143" lon="0.84098">
        <ele>194.80432128906</ele>
        <time>2015-03-14T09:10:01Z</time>
      </trkpt>
      <trkpt lat="44.3142" lon="0.84084">
        <ele>197.68823242188</ele>
        <time>2015-03-14T09:10:17Z</time>
      </trkpt>
      <trkpt lat="44.31414" lon="0.84067">
        <ele>198.1689453125</ele>
        <time>2015-03-14T09:10:31Z</time>
      </trkpt>
      <trkpt lat="44.31408" lon="0.84056">
        <ele>201.05285644531</ele>
        <time>2015-03-14T09:10:43Z</time>
      </trkpt>
      <trkpt lat="44.31401" lon="0.84037">
        <ele>202.97546386719</ele>
        <time>2015-03-14T09:10:59Z</time>
      </trkpt>
      <trkpt lat="44.31388" lon="0.8403">
        <ele>204.89807128906</ele>
        <time>2015-03-14T09:11:14Z</time>
      </trkpt>
      <trkpt lat="44.31365" lon="0.84025">
        <ele>207.30139160156</ele>
        <time>2015-03-14T09:11:37Z</time>
      </trkpt>
      <trkpt lat="44.31349" lon="0.84023">
        <ele>206.82067871094</ele>
        <time>2015-03-14T09:11:54Z</time>
      </trkpt>
      <trkpt lat="44.31334" lon="0.84022">
        <ele>205.37878417969</ele>
        <time>2015-03-14T09:12:10Z</time>
      </trkpt>
      <trkpt lat="44.31332" lon="0.84016">
        <ele>204.89807128906</ele>
        <time>2015-03-14T09:12:14Z</time>
      </trkpt>
      <trkpt lat="44.31331" lon="0.84008">
        <ele>203.45617675781</ele>
        <time>2015-03-14T09:12:19Z</time>
      </trkpt>
      <trkpt lat="44.31338" lon="0.83978">
        <ele>200.572265625</ele>
        <time>2015-03-14T09:12:39Z</time>
      </trkpt>
      <trkpt lat="44.31339" lon="0.83971">
        <ele>200.572265625</ele>
        <time>2015-03-14T09:12:45Z</time>
      </trkpt>
      <trkpt lat="44.31334" lon="0.83958">
        <ele>201.53356933594</ele>
        <time>2015-03-14T09:12:55Z</time>
      </trkpt>
      <trkpt lat="44.31313" lon="0.83955">
        <ele>202.01428222656</ele>
        <time>2015-03-14T09:13:16Z</time>
      </trkpt>
      <trkpt lat="44.31295" lon="0.83951">
        <ele>202.49487304688</ele>
        <time>2015-03-14T09:13:35Z</time>
      </trkpt>
      <trkpt lat="44.31295" lon="0.8394">
        <ele>202.01428222656</ele>
        <time>2015-03-14T09:13:44Z</time>
      </trkpt>
      <trkpt lat="44.31297" lon="0.83932">
        <ele>202.01428222656</ele>
        <time>2015-03-14T09:13:50Z</time>
      </trkpt>
      <trkpt lat="44.31303" lon="0.83912">
        <ele>202.01428222656</ele>
        <time>2015-03-14T09:14:06Z</time>
      </trkpt>
      <trkpt lat="44.31321" lon="0.83881">
        <ele>198.64953613281</ele>
        <time>2015-03-14T09:14:33Z</time>
      </trkpt>
      <trkpt lat="44.31328" lon="0.83854">
        <ele>194.80432128906</ele>
        <time>2015-03-14T09:14:54Z</time>
      </trkpt>
      <trkpt lat="44.3133" lon="0.83825">
        <ele>191.92028808594</ele>
        <time>2015-03-14T09:15:13Z</time>
      </trkpt>
      <trkpt lat="44.31334" lon="0.83817">
        <ele>191.43957519531</ele>
        <time>2015-03-14T09:15:21Z</time>
      </trkpt>
      <trkpt lat="44.31334" lon="0.83797">
        <ele>189.51696777344</ele>
        <time>2015-03-14T09:15:36Z</time>
      </trkpt>
      <trkpt lat="44.3132" lon="0.83768">
        <ele>187.11376953125</ele>
        <time>2015-03-14T09:15:58Z</time>
      </trkpt>
      <trkpt lat="44.3131" lon="0.83748">
        <ele>181.82641601562</ele>
        <time>2015-03-14T09:16:16Z</time>
      </trkpt>
      <trkpt lat="44.31307" lon="0.8372">
        <ele>178.94262695312</ele>
        <time>2015-03-14T09:16:37Z</time>
      </trkpt>
      <trkpt lat="44.31306" lon="0.83703">
        <ele>176.53930664062</ele>
        <time>2015-03-14T09:16:51Z</time>
      </trkpt>
      <trkpt lat="44.31305" lon="0.83692">
        <ele>176.05859375</ele>
        <time>2015-03-14T09:16:57Z</time>
      </trkpt>
      <trkpt lat="44.313" lon="0.83675">
        <ele>177.02001953125</ele>
        <time>2015-03-14T09:17:08Z</time>
      </trkpt>
      <trkpt lat="44.31291" lon="0.83659">
        <ele>179.42321777344</ele>
        <time>2015-03-14T09:17:20Z</time>
      </trkpt>
      <trkpt lat="44.3128" lon="0.83645">
        <ele>179.90380859375</ele>
        <time>2015-03-14T09:17:34Z</time>
      </trkpt>
      <trkpt lat="44.31268" lon="0.83634">
        <ele>180.38452148438</ele>
        <time>2015-03-14T09:17:47Z</time>
      </trkpt>
      <trkpt lat="44.31254" lon="0.83621">
        <ele>179.42321777344</ele>
        <time>2015-03-14T09:18:02Z</time>
      </trkpt>
      <trkpt lat="44.31243" lon="0.83609">
        <ele>180.38452148438</ele>
        <time>2015-03-14T09:18:18Z</time>
      </trkpt>
      <trkpt lat="44.31232" lon="0.83602">
        <ele>178.4619140625</ele>
        <time>2015-03-14T09:18:31Z</time>
      </trkpt>
      <trkpt lat="44.31226" lon="0.83597">
        <ele>178.4619140625</ele>
        <time>2015-03-14T09:18:38Z</time>
      </trkpt>
      <trkpt lat="44.31202" lon="0.83597">
        <ele>177.50061035156</ele>
        <time>2015-03-14T09:19:01Z</time>
      </trkpt>
      <trkpt lat="44.31183" lon="0.83594">
        <ele>174.13586425781</ele>
        <time>2015-03-14T09:19:20Z</time>
      </trkpt>
      <trkpt lat="44.31171" lon="0.83596">
        <ele>173.17468261719</ele>
        <time>2015-03-14T09:19:34Z</time>
      </trkpt>
      <trkpt lat="44.31157" lon="0.83595">
        <ele>169.81005859375</ele>
        <time>2015-03-14T09:19:51Z</time>
      </trkpt>
      <trkpt lat="44.31142" lon="0.83595">
        <ele>168.84875488281</ele>
        <time>2015-03-14T09:20:08Z</time>
      </trkpt>
      <trkpt lat="44.31125" lon="0.83598">
        <ele>166.4453125</ele>
        <time>2015-03-14T09:20:29Z</time>
      </trkpt>
      <trkpt lat="44.31111" lon="0.83605">
        <ele>162.11950683594</ele>
        <time>2015-03-14T09:20:47Z</time>
      </trkpt>
      <trkpt lat="44.31098" lon="0.83617">
        <ele>161.158203125</ele>
        <time>2015-03-14T09:21:05Z</time>
      </trkpt>
      <trkpt lat="44.31088" lon="0.8363">
        <ele>160.67749023438</ele>
        <time>2015-03-14T09:21:19Z</time>
      </trkpt>
      <trkpt lat="44.31085" lon="0.83633">
        <ele>160.67749023438</ele>
        <time>2015-03-14T09:21:21Z</time>
      </trkpt>
      <trkpt lat="44.31082" lon="0.83636">
        <ele>160.67749023438</ele>
        <time>2015-03-14T09:21:24Z</time>
      </trkpt>
      <trkpt lat="44.31076" lon="0.8364">
        <ele>158.75476074219</ele>
        <time>2015-03-14T09:21:31Z</time>
      </trkpt>
      <trkpt lat="44.31062" lon="0.83654">
        <ele>162.11950683594</ele>
        <time>2015-03-14T09:21:44Z</time>
      </trkpt>
      <trkpt lat="44.31056" lon="0.83669">
        <ele>162.11950683594</ele>
        <time>2015-03-14T09:21:56Z</time>
      </trkpt>
      <trkpt lat="44.31047" lon="0.83674">
        <ele>156.83215332031</ele>
        <time>2015-03-14T09:22:12Z</time>
      </trkpt>
      <trkpt lat="44.31046" lon="0.83667">
        <ele>154.90954589844</ele>
        <time>2015-03-14T09:22:19Z</time>
      </trkpt>
      <trkpt lat="44.31049" lon="0.83646">
        <ele>152.02575683594</ele>
        <time>2015-03-14T09:22:34Z</time>
      </trkpt>
      <trkpt lat="44.31048" lon="0.83636">
        <ele>153.46765136719</ele>
        <time>2015-03-14T09:22:39Z</time>
      </trkpt>
      <trkpt lat="44.31056" lon="0.83627">
        <ele>153.46765136719</ele>
        <time>2015-03-14T09:22:47Z</time>
      </trkpt>
      <trkpt lat="44.31057" lon="0.83621">
        <ele>152.98693847656</ele>
        <time>2015-03-14T09:22:51Z</time>
      </trkpt>
      <trkpt lat="44.31062" lon="0.83612">
        <ele>153.94836425781</ele>
        <time>2015-03-14T09:22:57Z</time>
      </trkpt>
      <trkpt lat="44.31073" lon="0.83603">
        <ele>153.46765136719</ele>
        <time>2015-03-14T09:23:07Z</time>
      </trkpt>
      <trkpt lat="44.31075" lon="0.83597">
        <ele>153.46765136719</ele>
        <time>2015-03-14T09:23:11Z</time>
      </trkpt>
      <trkpt lat="44.3108" lon="0.83594">
        <ele>153.94836425781</ele>
        <time>2015-03-14T09:23:14Z</time>
      </trkpt>
      <trkpt lat="44.31078" lon="0.83588">
        <ele>153.46765136719</ele>
        <time>2015-03-14T09:23:18Z</time>
      </trkpt>
      <trkpt lat="44.31077" lon="0.83585">
        <ele>152.50634765625</ele>
        <time>2015-03-14T09:23:20Z</time>
      </trkpt>
      <trkpt lat="44.31085" lon="0.83573">
        <ele>153.46765136719</ele>
        <time>2015-03-14T09:23:30Z</time>
      </trkpt>
      <trkpt lat="44.3109" lon="0.83564">
        <ele>152.50634765625</ele>
        <time>2015-03-14T09:23:38Z</time>
      </trkpt>
      <trkpt lat="44.31103" lon="0.8354">
        <ele>151.544921875</ele>
        <time>2015-03-14T09:23:58Z</time>
      </trkpt>
      <trkpt lat="44.31107" lon="0.83537">
        <ele>150.58361816406</ele>
        <time>2015-03-14T09:24:03Z</time>
      </trkpt>
      <trkpt lat="44.3111" lon="0.83528">
        <ele>150.58361816406</ele>
        <time>2015-03-14T09:24:10Z</time>
      </trkpt>
      <trkpt lat="44.31123" lon="0.83505">
        <ele>148.18041992188</ele>
        <time>2015-03-14T09:24:31Z</time>
      </trkpt>
      <trkpt lat="44.31137" lon="0.8348">
        <ele>144.33520507812</ele>
        <time>2015-03-14T09:24:54Z</time>
      </trkpt>
      <trkpt lat="44.31144" lon="0.83463">
        <ele>142.41247558594</ele>
        <time>2015-03-14T09:25:10Z</time>
      </trkpt>
      <trkpt lat="44.31155" lon="0.83447">
        <ele>140.48986816406</ele>
        <time>2015-03-14T09:25:26Z</time>
      </trkpt>
      <trkpt lat="44.31147" lon="0.8343">
        <ele>139.0478515625</ele>
        <time>2015-03-14T09:25:44Z</time>
      </trkpt>
      <trkpt lat="44.31142" lon="0.83404">
        <ele>134.2412109375</ele>
        <time>2015-03-14T09:26:08Z</time>
      </trkpt>
      <trkpt lat="44.3114" lon="0.83379">
        <ele>131.35729980469</ele>
        <time>2015-03-14T09:26:31Z</time>
      </trkpt>
      <trkpt lat="44.31136" lon="0.83352">
        <ele>127.03137207031</ele>
        <time>2015-03-14T09:26:53Z</time>
      </trkpt>
      <trkpt lat="44.31138" lon="0.83329">
        <ele>124.62805175781</ele>
        <time>2015-03-14T09:27:15Z</time>
      </trkpt>
      <trkpt lat="44.31142" lon="0.83314">
        <ele>122.22473144531</ele>
        <time>2015-03-14T09:27:31Z</time>
      </trkpt>
      <trkpt lat="44.31149" lon="0.83288">
        <ele>119.82141113281</ele>
        <time>2015-03-14T09:27:54Z</time>
      </trkpt>
      <trkpt lat="44.3115" lon="0.83257">
        <ele>116.45678710938</ele>
        <time>2015-03-14T09:28:23Z</time>
      </trkpt>
      <trkpt lat="44.31149" lon="0.83252">
        <ele>115.97619628906</ele>
        <time>2015-03-14T09:28:51Z</time>
      </trkpt>
      <trkpt lat="44.31147" lon="0.83241">
        <ele>116.45678710938</ele>
        <time>2015-03-14T09:29:13Z</time>
      </trkpt>
      <trkpt lat="44.31136" lon="0.83244">
        <ele>117.41821289062</ele>
        <time>2015-03-14T09:29:27Z</time>
      </trkpt>
      <trkpt lat="44.31115" lon="0.8326">
        <ele>120.30212402344</ele>
        <time>2015-03-14T09:29:52Z</time>
      </trkpt>
      <trkpt lat="44.31092" lon="0.83269">
        <ele>122.22473144531</ele>
        <time>2015-03-14T09:30:17Z</time>
      </trkpt>
      <trkpt lat="44.31075" lon="0.8327">
        <ele>122.22473144531</ele>
        <time>2015-03-14T09:30:37Z</time>
      </trkpt>
      <trkpt lat="44.31058" lon="0.83269">
        <ele>124.14733886719</ele>
        <time>2015-03-14T09:31:01Z</time>
      </trkpt>
      <trkpt lat="44.31039" lon="0.83269">
        <ele>124.62805175781</ele>
        <time>2015-03-14T09:31:29Z</time>
      </trkpt>
      <trkpt lat="44.31022" lon="0.83277">
        <ele>128.9541015625</ele>
        <time>2015-03-14T09:31:58Z</time>
      </trkpt>
      <trkpt lat="44.31006" lon="0.83291">
        <ele>132.31860351562</ele>
        <time>2015-03-14T09:32:32Z</time>
      </trkpt>
      <trkpt lat="44.3099" lon="0.83304">
        <ele>135.20251464844</ele>
        <time>2015-03-14T09:33:05Z</time>
      </trkpt>
      <trkpt lat="44.30977" lon="0.83313">
        <ele>136.64465332031</ele>
        <time>2015-03-14T09:33:34Z</time>
      </trkpt>
      <trkpt lat="44.30965" lon="0.83322">
        <ele>140.48986816406</ele>
        <time>2015-03-14T09:34:01Z</time>
      </trkpt>
      <trkpt lat="44.30951" lon="0.83329">
        <ele>141.93176269531</ele>
        <time>2015-03-14T09:34:24Z</time>
      </trkpt>
      <trkpt lat="44.30927" lon="0.83337">
        <ele>140.97045898438</ele>
        <time>2015-03-14T09:34:49Z</time>
      </trkpt>
      <trkpt lat="44.30903" lon="0.83343">
        <ele>139.52844238281</ele>
        <time>2015-03-14T09:35:15Z</time>
      </trkpt>
      <trkpt lat="44.30876" lon="0.83345">
        <ele>138.56726074219</ele>
        <time>2015-03-14T09:35:42Z</time>
      </trkpt>
      <trkpt lat="44.30849" lon="0.83341">
        <ele>137.60583496094</ele>
        <time>2015-03-14T09:36:09Z</time>
      </trkpt>
      <trkpt lat="44.30833" lon="0.8333">
        <ele>138.08654785156</ele>
        <time>2015-03-14T09:36:30Z</time>
      </trkpt>
      <trkpt lat="44.30817" lon="0.83322">
        <ele>139.0478515625</ele>
        <time>2015-03-14T09:36:51Z</time>
      </trkpt>
      <trkpt lat="44.30801" lon="0.83316">
        <ele>140.97045898438</ele>
        <time>2015-03-14T09:37:17Z</time>
      </trkpt>
      <trkpt lat="44.30783" lon="0.83314">
        <ele>144.81579589844</ele>
        <time>2015-03-14T09:37:48Z</time>
      </trkpt>
      <trkpt lat="44.3077" lon="0.83316">
        <ele>145.77709960938</ele>
        <time>2015-03-14T09:38:13Z</time>
      </trkpt>
      <trkpt lat="44.30756" lon="0.8332">
        <ele>148.18041992188</ele>
        <time>2015-03-14T09:38:37Z</time>
      </trkpt>
      <trkpt lat="44.30741" lon="0.83324">
        <ele>151.06420898438</ele>
        <time>2015-03-14T09:39:00Z</time>
      </trkpt>
      <trkpt lat="44.30724" lon="0.83323">
        <ele>154.90954589844</ele>
        <time>2015-03-14T09:39:21Z</time>
      </trkpt>
      <trkpt lat="44.30705" lon="0.83335">
        <ele>156.83215332031</ele>
        <time>2015-03-14T09:39:48Z</time>
      </trkpt>
      <trkpt lat="44.30687" lon="0.83336">
        <ele>158.27416992188</ele>
        <time>2015-03-14T09:40:11Z</time>
      </trkpt>
      <trkpt lat="44.30672" lon="0.83358">
        <ele>161.63891601562</ele>
        <time>2015-03-14T09:40:38Z</time>
      </trkpt>
      <trkpt lat="44.30663" lon="0.83368">
        <ele>160.67749023438</ele>
        <time>2015-03-14T09:40:54Z</time>
      </trkpt>
      <trkpt lat="44.30647" lon="0.83387">
        <ele>162.11950683594</ele>
        <time>2015-03-14T09:41:19Z</time>
      </trkpt>
      <trkpt lat="44.30631" lon="0.83405">
        <ele>161.63891601562</ele>
        <time>2015-03-14T09:41:41Z</time>
      </trkpt>
      <trkpt lat="44.30615" lon="0.83431">
        <ele>160.67749023438</ele>
        <time>2015-03-14T09:42:07Z</time>
      </trkpt>
      <trkpt lat="44.30601" lon="0.83446">
        <ele>159.71618652344</ele>
        <time>2015-03-14T09:42:26Z</time>
      </trkpt>
      <trkpt lat="44.30589" lon="0.83462">
        <ele>161.158203125</ele>
        <time>2015-03-14T09:42:45Z</time>
      </trkpt>
      <trkpt lat="44.30576" lon="0.83484">
        <ele>161.63891601562</ele>
        <time>2015-03-14T09:43:07Z</time>
      </trkpt>
      <trkpt lat="44.30566" lon="0.83506">
        <ele>162.11950683594</ele>
        <time>2015-03-14T09:43:27Z</time>
      </trkpt>
      <trkpt lat="44.30553" lon="0.83532">
        <ele>162.60009765625</ele>
        <time>2015-03-14T09:43:53Z</time>
      </trkpt>
      <trkpt lat="44.30539" lon="0.83553">
        <ele>163.08081054688</ele>
        <time>2015-03-14T09:44:20Z</time>
      </trkpt>
      <trkpt lat="44.30526" lon="0.83564">
        <ele>164.04211425781</ele>
        <time>2015-03-14T09:44:38Z</time>
      </trkpt>
      <trkpt lat="44.30503" lon="0.83581">
        <ele>167.88732910156</ele>
        <time>2015-03-14T09:45:07Z</time>
      </trkpt>
      <trkpt lat="44.30489" lon="0.8359">
        <ele>169.81005859375</ele>
        <time>2015-03-14T09:45:30Z</time>
      </trkpt>
      <trkpt lat="44.30468" lon="0.83602">
        <ele>173.6552734375</ele>
        <time>2015-03-14T09:46:04Z</time>
      </trkpt>
      <trkpt lat="44.3045" lon="0.83612">
        <ele>176.53930664062</ele>
        <time>2015-03-14T09:46:28Z</time>
      </trkpt>
      <trkpt lat="44.3043" lon="0.83624">
        <ele>180.38452148438</ele>
        <time>2015-03-14T09:46:55Z</time>
      </trkpt>
      <trkpt lat="44.30414" lon="0.83635">
        <ele>181.34582519531</ele>
        <time>2015-03-14T09:47:15Z</time>
      </trkpt>
      <trkpt lat="44.30401" lon="0.83648">
        <ele>179.90380859375</ele>
        <time>2015-03-14T09:47:35Z</time>
      </trkpt>
      <trkpt lat="44.30382" lon="0.83666">
        <ele>181.34582519531</ele>
        <time>2015-03-14T09:48:01Z</time>
      </trkpt>
      <trkpt lat="44.30371" lon="0.83685">
        <ele>182.78784179688</ele>
        <time>2015-03-14T09:48:24Z</time>
      </trkpt>
      <trkpt lat="44.30362" lon="0.83707">
        <ele>181.34582519531</ele>
        <time>2015-03-14T09:48:45Z</time>
      </trkpt>
      <trkpt lat="44.30353" lon="0.83735">
        <ele>182.78784179688</ele>
        <time>2015-03-14T09:49:11Z</time>
      </trkpt>
      <trkpt lat="44.30344" lon="0.83759">
        <ele>185.67175292969</ele>
        <time>2015-03-14T09:49:37Z</time>
      </trkpt>
      <trkpt lat="44.30336" lon="0.83782">
        <ele>189.99768066406</ele>
        <time>2015-03-14T09:50:05Z</time>
      </trkpt>
      <trkpt lat="44.30329" lon="0.83797">
        <ele>192.40112304688</ele>
        <time>2015-03-14T09:50:27Z</time>
      </trkpt>
      <trkpt lat="44.30322" lon="0.83811">
        <ele>191.43957519531</ele>
        <time>2015-03-14T09:50:51Z</time>
      </trkpt>
      <trkpt lat="44.30319" lon="0.83825">
        <ele>191.92028808594</ele>
        <time>2015-03-14T09:51:11Z</time>
      </trkpt>
      <trkpt lat="44.30315" lon="0.83845">
        <ele>190.47839355469</ele>
        <time>2015-03-14T09:51:33Z</time>
      </trkpt>
      <trkpt lat="44.30318" lon="0.83874">
        <ele>194.80432128906</ele>
        <time>2015-03-14T09:52:08Z</time>
      </trkpt>
      <trkpt lat="44.30325" lon="0.83884">
        <ele>193.3623046875</ele>
        <time>2015-03-14T09:52:25Z</time>
      </trkpt>
      <trkpt lat="44.30333" lon="0.83897">
        <ele>190.47839355469</ele>
        <time>2015-03-14T09:52:43Z</time>
      </trkpt>
      <trkpt lat="44.30334" lon="0.839">
        <ele>189.99768066406</ele>
        <time>2015-03-14T09:52:46Z</time>
      </trkpt>
      <trkpt lat="44.30344" lon="0.83925">
        <ele>189.51696777344</ele>
        <time>2015-03-14T09:53:09Z</time>
      </trkpt>
      <trkpt lat="44.30339" lon="0.8394">
        <ele>194.32373046875</ele>
        <time>2015-03-14T09:53:27Z</time>
      </trkpt>
      <trkpt lat="44.30326" lon="0.83956">
        <ele>199.13012695312</ele>
        <time>2015-03-14T09:53:52Z</time>
      </trkpt>
      <trkpt lat="44.30317" lon="0.83975">
        <ele>200.09167480469</ele>
        <time>2015-03-14T09:54:10Z</time>
      </trkpt>
      <trkpt lat="44.30307" lon="0.83997">
        <ele>201.05285644531</ele>
        <time>2015-03-14T09:54:33Z</time>
      </trkpt>
      <trkpt lat="44.30296" lon="0.84022">
        <ele>203.93688964844</ele>
        <time>2015-03-14T09:54:59Z</time>
      </trkpt>
      <trkpt lat="44.30295" lon="0.84027">
        <ele>203.45617675781</ele>
        <time>2015-03-14T09:55:03Z</time>
      </trkpt>
      <trkpt lat="44.30287" lon="0.84054">
        <ele>204.41748046875</ele>
        <time>2015-03-14T09:55:26Z</time>
      </trkpt>
      <trkpt lat="44.30278" lon="0.84073">
        <ele>204.89807128906</ele>
        <time>2015-03-14T09:55:45Z</time>
      </trkpt>
      <trkpt lat="44.30261" lon="0.84095">
        <ele>206.34008789062</ele>
        <time>2015-03-14T09:56:10Z</time>
      </trkpt>
      <trkpt lat="44.30245" lon="0.8412">
        <ele>208.26281738281</ele>
        <time>2015-03-14T09:56:36Z</time>
      </trkpt>
      <trkpt lat="44.30229" lon="0.84144">
        <ele>211.62744140625</ele>
        <time>2015-03-14T09:57:01Z</time>
      </trkpt>
      <trkpt lat="44.30212" lon="0.84166">
        <ele>213.55004882812</ele>
        <time>2015-03-14T09:57:27Z</time>
      </trkpt>
      <trkpt lat="44.30193" lon="0.84194">
        <ele>215.47265625</ele>
        <time>2015-03-14T09:57:54Z</time>
      </trkpt>
      <trkpt lat="44.30177" lon="0.84218">
        <ele>214.03063964844</ele>
        <time>2015-03-14T09:58:18Z</time>
      </trkpt>
      <trkpt lat="44.30162" lon="0.84241">
        <ele>213.0693359375</ele>
        <time>2015-03-14T09:58:40Z</time>
      </trkpt>
      <trkpt lat="44.30146" lon="0.84263">
        <ele>212.10803222656</ele>
        <time>2015-03-14T09:59:03Z</time>
      </trkpt>
      <trkpt lat="44.30126" lon="0.84291">
        <ele>213.0693359375</ele>
        <time>2015-03-14T09:59:31Z</time>
      </trkpt>
      <trkpt lat="44.30117" lon="0.84306">
        <ele>213.0693359375</ele>
        <time>2015-03-14T09:59:48Z</time>
      </trkpt>
      <trkpt lat="44.30106" lon="0.8432">
        <ele>211.14672851562</ele>
        <time>2015-03-14T10:00:05Z</time>
      </trkpt>
      <trkpt lat="44.30104" lon="0.84321">
        <ele>210.666015625</ele>
        <time>2015-03-14T10:00:26Z</time>
      </trkpt>
      <trkpt lat="44.30104" lon="0.84321">
        <ele>210.666015625</ele>
        <time>2015-03-14T10:00:35Z</time>
      </trkpt>
      <trkpt lat="44.30091" lon="0.84304">
        <ele>213.55004882812</ele>
        <time>2015-03-14T10:00:53Z</time>
      </trkpt>
      <trkpt lat="44.30081" lon="0.84291">
        <ele>214.99194335938</ele>
        <time>2015-03-14T10:01:07Z</time>
      </trkpt>
      <trkpt lat="44.3006" lon="0.84307">
        <ele>212.10803222656</ele>
        <time>2015-03-14T10:01:30Z</time>
      </trkpt>
      <trkpt lat="44.30044" lon="0.84323">
        <ele>208.74340820312</ele>
        <time>2015-03-14T10:01:51Z</time>
      </trkpt>
      <trkpt lat="44.30034" lon="0.84341">
        <ele>205.85949707031</ele>
        <time>2015-03-14T10:02:10Z</time>
      </trkpt>
      <trkpt lat="44.30033" lon="0.84357">
        <ele>201.05285644531</ele>
        <time>2015-03-14T10:02:26Z</time>
      </trkpt>
      <trkpt lat="44.30031" lon="0.84376">
        <ele>196.72692871094</ele>
        <time>2015-03-14T10:02:45Z</time>
      </trkpt>
      <trkpt lat="44.3003" lon="0.8439">
        <ele>194.80432128906</ele>
        <time>2015-03-14T10:03:03Z</time>
      </trkpt>
      <trkpt lat="44.3003" lon="0.84401">
        <ele>191.92028808594</ele>
        <time>2015-03-14T10:03:20Z</time>
      </trkpt>
      <trkpt lat="44.30031" lon="0.84404">
        <ele>191.92028808594</ele>
        <time>2015-03-14T10:03:23Z</time>
      </trkpt>
      <trkpt lat="44.30034" lon="0.84419">
        <ele>190.47839355469</ele>
        <time>2015-03-14T10:03:42Z</time>
      </trkpt>
      <trkpt lat="44.30037" lon="0.84438">
        <ele>188.55578613281</ele>
        <time>2015-03-14T10:04:00Z</time>
      </trkpt>
      <trkpt lat="44.30042" lon="0.84459">
        <ele>185.67175292969</ele>
        <time>2015-03-14T10:04:19Z</time>
      </trkpt>
      <trkpt lat="44.30044" lon="0.8447">
        <ele>183.7490234375</ele>
        <time>2015-03-14T10:04:34Z</time>
      </trkpt>
      <trkpt lat="44.30042" lon="0.84472">
        <ele>182.78784179688</ele>
        <time>2015-03-14T10:04:40Z</time>
      </trkpt>
      <trkpt lat="44.3003" lon="0.84462">
        <ele>180.865234375</ele>
        <time>2015-03-14T10:05:04Z</time>
      </trkpt>
      <trkpt lat="44.30026" lon="0.84478">
        <ele>177.98120117188</ele>
        <time>2015-03-14T10:05:22Z</time>
      </trkpt>
      <trkpt lat="44.30022" lon="0.84497">
        <ele>172.69396972656</ele>
        <time>2015-03-14T10:05:41Z</time>
      </trkpt>
      <trkpt lat="44.30019" lon="0.84511">
        <ele>168.84875488281</ele>
        <time>2015-03-14T10:05:58Z</time>
      </trkpt>
      <trkpt lat="44.30017" lon="0.84523">
        <ele>165.96472167969</ele>
        <time>2015-03-14T10:06:13Z</time>
      </trkpt>
      <trkpt lat="44.30014" lon="0.84544">
        <ele>162.60009765625</ele>
        <time>2015-03-14T10:06:34Z</time>
      </trkpt>
      <trkpt lat="44.30009" lon="0.84568">
        <ele>159.71618652344</ele>
        <time>2015-03-14T10:06:58Z</time>
      </trkpt>
      <trkpt lat="44.3" lon="0.84592">
        <ele>158.75476074219</ele>
        <time>2015-03-14T10:07:23Z</time>
      </trkpt>
      <trkpt lat="44.29991" lon="0.84616">
        <ele>158.27416992188</ele>
        <time>2015-03-14T10:07:46Z</time>
      </trkpt>
      <trkpt lat="44.29982" lon="0.84641">
        <ele>155.39025878906</ele>
        <time>2015-03-14T10:08:08Z</time>
      </trkpt>
      <trkpt lat="44.29971" lon="0.84668">
        <ele>155.39025878906</ele>
        <time>2015-03-14T10:08:35Z</time>
      </trkpt>
      <trkpt lat="44.29962" lon="0.84682">
        <ele>157.31286621094</ele>
        <time>2015-03-14T10:08:50Z</time>
      </trkpt>
      <trkpt lat="44.29951" lon="0.847">
        <ele>157.79357910156</ele>
        <time>2015-03-14T10:09:09Z</time>
      </trkpt>
      <trkpt lat="44.29942" lon="0.8471">
        <ele>154.42895507812</ele>
        <time>2015-03-14T10:09:23Z</time>
      </trkpt>
      <trkpt lat="44.29925" lon="0.84723">
        <ele>152.50634765625</ele>
        <time>2015-03-14T10:09:44Z</time>
      </trkpt>
      <trkpt lat="44.29905" lon="0.84743">
        <ele>152.98693847656</ele>
        <time>2015-03-14T10:10:09Z</time>
      </trkpt>
      <trkpt lat="44.29897" lon="0.8476">
        <ele>155.39025878906</ele>
        <time>2015-03-14T10:10:25Z</time>
      </trkpt>
      <trkpt lat="44.29891" lon="0.84779">
        <ele>154.42895507812</ele>
        <time>2015-03-14T10:10:38Z</time>
      </trkpt>
      <trkpt lat="44.29881" lon="0.84808">
        <ele>150.58361816406</ele>
        <time>2015-03-14T10:10:56Z</time>
      </trkpt>
      <trkpt lat="44.29875" lon="0.84833">
        <ele>150.10302734375</ele>
        <time>2015-03-14T10:11:14Z</time>
      </trkpt>
      <trkpt lat="44.29871" lon="0.84858">
        <ele>150.58361816406</ele>
        <time>2015-03-14T10:11:32Z</time>
      </trkpt>
      <trkpt lat="44.29867" lon="0.84883">
        <ele>148.66101074219</ele>
        <time>2015-03-14T10:11:49Z</time>
      </trkpt>
      <trkpt lat="44.29863" lon="0.84907">
        <ele>146.2578125</ele>
        <time>2015-03-14T10:12:04Z</time>
      </trkpt>
      <trkpt lat="44.29856" lon="0.84923">
        <ele>145.77709960938</ele>
        <time>2015-03-14T10:12:18Z</time>
      </trkpt>
      <trkpt lat="44.29837" lon="0.84935">
        <ele>144.33520507812</ele>
        <time>2015-03-14T10:12:41Z</time>
      </trkpt>
      <trkpt lat="44.29812" lon="0.84936">
        <ele>146.2578125</ele>
        <time>2015-03-14T10:13:05Z</time>
      </trkpt>
      <trkpt lat="44.29791" lon="0.84933">
        <ele>145.29638671875</ele>
        <time>2015-03-14T10:13:24Z</time>
      </trkpt>
      <trkpt lat="44.29765" lon="0.84933">
        <ele>142.41247558594</ele>
        <time>2015-03-14T10:13:48Z</time>
      </trkpt>
      <trkpt lat="44.29754" lon="0.84935">
        <ele>140.97045898438</ele>
        <time>2015-03-14T10:13:59Z</time>
      </trkpt>
      <trkpt lat="44.2975" lon="0.84934">
        <ele>140.48986816406</ele>
        <time>2015-03-14T10:14:04Z</time>
      </trkpt>
      <trkpt lat="44.29746" lon="0.84934">
        <ele>140.48986816406</ele>
        <time>2015-03-14T10:14:08Z</time>
      </trkpt>
      <trkpt lat="44.29724" lon="0.84941">
        <ele>139.0478515625</ele>
        <time>2015-03-14T10:14:32Z</time>
      </trkpt>
      <trkpt lat="44.29702" lon="0.8495">
        <ele>138.08654785156</ele>
        <time>2015-03-14T10:14:56Z</time>
      </trkpt>
      <trkpt lat="44.29673" lon="0.8497">
        <ele>135.68310546875</ele>
        <time>2015-03-14T10:15:28Z</time>
      </trkpt>
      <trkpt lat="44.29648" lon="0.84985">
        <ele>135.20251464844</ele>
        <time>2015-03-14T10:15:55Z</time>
      </trkpt>
      <trkpt lat="44.29624" lon="0.85">
        <ele>133.76049804688</ele>
        <time>2015-03-14T10:16:20Z</time>
      </trkpt>
      <trkpt lat="44.29599" lon="0.85021">
        <ele>130.87670898438</ele>
        <time>2015-03-14T10:16:51Z</time>
      </trkpt>
      <trkpt lat="44.29578" lon="0.85039">
        <ele>129.43469238281</ele>
        <time>2015-03-14T10:17:15Z</time>
      </trkpt>
      <trkpt lat="44.29555" lon="0.85055">
        <ele>127.03137207031</ele>
        <time>2015-03-14T10:17:42Z</time>
      </trkpt>
      <trkpt lat="44.29538" lon="0.85069">
        <ele>127.51196289062</ele>
        <time>2015-03-14T10:18:01Z</time>
      </trkpt>
      <trkpt lat="44.2952" lon="0.85086">
        <ele>127.51196289062</ele>
        <time>2015-03-14T10:18:24Z</time>
      </trkpt>
      <trkpt lat="44.29506" lon="0.85112">
        <ele>125.58935546875</ele>
        <time>2015-03-14T10:18:48Z</time>
      </trkpt>
      <trkpt lat="44.295" lon="0.85119">
        <ele>126.06994628906</ele>
        <time>2015-03-14T10:18:55Z</time>
      </trkpt>
      <trkpt lat="44.29495" lon="0.85136">
        <ele>125.58935546875</ele>
        <time>2015-03-14T10:19:09Z</time>
      </trkpt>
      <trkpt lat="44.29492" lon="0.85157">
        <ele>124.14733886719</ele>
        <time>2015-03-14T10:19:26Z</time>
      </trkpt>
      <trkpt lat="44.29487" lon="0.85178">
        <ele>123.18615722656</ele>
        <time>2015-03-14T10:19:42Z</time>
      </trkpt>
      <trkpt lat="44.29485" lon="0.85194">
        <ele>125.10876464844</ele>
        <time>2015-03-14T10:19:57Z</time>
      </trkpt>
      <trkpt lat="44.29482" lon="0.85211">
        <ele>126.55065917969</ele>
        <time>2015-03-14T10:20:12Z</time>
      </trkpt>
      <trkpt lat="44.29477" lon="0.85231">
        <ele>127.51196289062</ele>
        <time>2015-03-14T10:20:28Z</time>
      </trkpt>
      <trkpt lat="44.2947" lon="0.85253">
        <ele>128.47338867188</ele>
        <time>2015-03-14T10:20:46Z</time>
      </trkpt>
      <trkpt lat="44.29462" lon="0.8528">
        <ele>127.99255371094</ele>
        <time>2015-03-14T10:21:08Z</time>
      </trkpt>
      <trkpt lat="44.29445" lon="0.85306">
        <ele>125.58935546875</ele>
        <time>2015-03-14T10:21:33Z</time>
      </trkpt>
      <trkpt lat="44.29421" lon="0.85329">
        <ele>124.62805175781</ele>
        <time>2015-03-14T10:22:00Z</time>
      </trkpt>
      <trkpt lat="44.29408" lon="0.85345">
        <ele>127.03137207031</ele>
        <time>2015-03-14T10:22:18Z</time>
      </trkpt>
      <trkpt lat="44.29402" lon="0.85358">
        <ele>128.9541015625</ele>
        <time>2015-03-14T10:22:30Z</time>
      </trkpt>
      <trkpt lat="44.29398" lon="0.85372">
        <ele>127.03137207031</ele>
        <time>2015-03-14T10:22:42Z</time>
      </trkpt>
      <trkpt lat="44.29395" lon="0.85382">
        <ele>127.51196289062</ele>
        <time>2015-03-14T10:22:49Z</time>
      </trkpt>
      <trkpt lat="44.2939" lon="0.854">
        <ele>127.99255371094</ele>
        <time>2015-03-14T10:23:04Z</time>
      </trkpt>
      <trkpt lat="44.29383" lon="0.85421">
        <ele>127.51196289062</ele>
        <time>2015-03-14T10:23:20Z</time>
      </trkpt>
      <trkpt lat="44.29376" lon="0.8544">
        <ele>127.51196289062</ele>
        <time>2015-03-14T10:23:35Z</time>
      </trkpt>
      <trkpt lat="44.29364" lon="0.85468">
        <ele>128.47338867188</ele>
        <time>2015-03-14T10:23:59Z</time>
      </trkpt>
      <trkpt lat="44.29359" lon="0.85476">
        <ele>128.9541015625</ele>
        <time>2015-03-14T10:24:07Z</time>
      </trkpt>
      <trkpt lat="44.29344" lon="0.85494">
        <ele>128.47338867188</ele>
        <time>2015-03-14T10:24:25Z</time>
      </trkpt>
      <trkpt lat="44.29326" lon="0.85511">
        <ele>125.58935546875</ele>
        <time>2015-03-14T10:24:47Z</time>
      </trkpt>
      <trkpt lat="44.29311" lon="0.85526">
        <ele>123.66674804688</ele>
        <time>2015-03-14T10:25:04Z</time>
      </trkpt>
      <trkpt lat="44.29294" lon="0.85549">
        <ele>122.70544433594</ele>
        <time>2015-03-14T10:25:27Z</time>
      </trkpt>
      <trkpt lat="44.29277" lon="0.85572">
        <ele>121.744140625</ele>
        <time>2015-03-14T10:25:52Z</time>
      </trkpt>
      <trkpt lat="44.29271" lon="0.85576">
        <ele>121.744140625</ele>
        <time>2015-03-14T10:26:09Z</time>
      </trkpt>
      <trkpt lat="44.29269" lon="0.85578">
        <ele>122.22473144531</ele>
        <time>2015-03-14T10:26:50Z</time>
      </trkpt>
      <trkpt lat="44.29249" lon="0.85596">
        <ele>120.78283691406</ele>
        <time>2015-03-14T10:27:18Z</time>
      </trkpt>
      <trkpt lat="44.2924" lon="0.85615">
        <ele>121.744140625</ele>
        <time>2015-03-14T10:27:38Z</time>
      </trkpt>
      <trkpt lat="44.29232" lon="0.8563">
        <ele>124.62805175781</ele>
        <time>2015-03-14T10:27:56Z</time>
      </trkpt>
      <trkpt lat="44.29228" lon="0.85633">
        <ele>125.58935546875</ele>
        <time>2015-03-14T10:28:00Z</time>
      </trkpt>
      <trkpt lat="44.29211" lon="0.85651">
        <ele>127.03137207031</ele>
        <time>2015-03-14T10:28:24Z</time>
      </trkpt>
      <trkpt lat="44.29198" lon="0.85666">
        <ele>127.51196289062</ele>
        <time>2015-03-14T10:28:42Z</time>
      </trkpt>
      <trkpt lat="44.29182" lon="0.85688">
        <ele>125.10876464844</ele>
        <time>2015-03-14T10:29:03Z</time>
      </trkpt>
      <trkpt lat="44.29165" lon="0.85706">
        <ele>123.18615722656</ele>
        <time>2015-03-14T10:29:24Z</time>
      </trkpt>
      <trkpt lat="44.29144" lon="0.8573">
        <ele>120.30212402344</ele>
        <time>2015-03-14T10:29:51Z</time>
      </trkpt>
      <trkpt lat="44.29142" lon="0.85732">
        <ele>120.30212402344</ele>
        <time>2015-03-14T10:29:54Z</time>
      </trkpt>
      <trkpt lat="44.29128" lon="0.85744">
        <ele>121.26354980469</ele>
        <time>2015-03-14T10:30:10Z</time>
      </trkpt>
      <trkpt lat="44.29128" lon="0.85745">
        <ele>122.22473144531</ele>
        <time>2015-03-14T10:30:12Z</time>
      </trkpt>
      <trkpt lat="44.29126" lon="0.85748">
        <ele>121.744140625</ele>
        <time>2015-03-14T10:30:14Z</time>
      </trkpt>
      <trkpt lat="44.2912" lon="0.85766">
        <ele>117.89880371094</ele>
        <time>2015-03-14T10:30:30Z</time>
      </trkpt>
      <trkpt lat="44.29117" lon="0.85785">
        <ele>115.01489257812</ele>
        <time>2015-03-14T10:30:45Z</time>
      </trkpt>
      <trkpt lat="44.29112" lon="0.85796">
        <ele>113.57299804688</ele>
        <time>2015-03-14T10:30:54Z</time>
      </trkpt>
      <trkpt lat="44.29103" lon="0.85808">
        <ele>112.13098144531</ele>
        <time>2015-03-14T10:31:07Z</time>
      </trkpt>
      <trkpt lat="44.29092" lon="0.85831">
        <ele>112.13098144531</ele>
        <time>2015-03-14T10:31:24Z</time>
      </trkpt>
      <trkpt lat="44.29084" lon="0.85847">
        <ele>111.65026855469</ele>
        <time>2015-03-14T10:31:36Z</time>
      </trkpt>
      <trkpt lat="44.29075" lon="0.85866">
        <ele>110.68884277344</ele>
        <time>2015-03-14T10:31:51Z</time>
      </trkpt>
      <trkpt lat="44.29067" lon="0.85884">
        <ele>109.72766113281</ele>
        <time>2015-03-14T10:32:09Z</time>
      </trkpt>
      <trkpt lat="44.29051" lon="0.85903">
        <ele>106.84362792969</ele>
        <time>2015-03-14T10:32:28Z</time>
      </trkpt>
      <trkpt lat="44.29035" lon="0.85928">
        <ele>105.88244628906</ele>
        <time>2015-03-14T10:32:51Z</time>
      </trkpt>
      <trkpt lat="44.29021" lon="0.85948">
        <ele>103.95971679688</ele>
        <time>2015-03-14T10:33:10Z</time>
      </trkpt>
      <trkpt lat="44.29003" lon="0.8598">
        <ele>101.55639648438</ele>
        <time>2015-03-14T10:33:38Z</time>
      </trkpt>
      <trkpt lat="44.28988" lon="0.86012">
        <ele>98.19189453125</ele>
        <time>2015-03-14T10:34:03Z</time>
      </trkpt>
      <trkpt lat="44.28978" lon="0.86031">
        <ele>98.672485351562</ele>
        <time>2015-03-14T10:34:22Z</time>
      </trkpt>
      <trkpt lat="44.28972" lon="0.86037">
        <ele>99.153076171875</ele>
        <time>2015-03-14T10:34:40Z</time>
      </trkpt>
      <trkpt lat="44.28965" lon="0.86052">
        <ele>98.19189453125</ele>
        <time>2015-03-14T10:34:55Z</time>
      </trkpt>
      <trkpt lat="44.28946" lon="0.86072">
        <ele>95.788452148438</ele>
        <time>2015-03-14T10:35:19Z</time>
      </trkpt>
      <trkpt lat="44.28931" lon="0.86091">
        <ele>94.346557617188</ele>
        <time>2015-03-14T10:35:39Z</time>
      </trkpt>
      <trkpt lat="44.28916" lon="0.86114">
        <ele>93.385131835938</ele>
        <time>2015-03-14T10:36:01Z</time>
      </trkpt>
      <trkpt lat="44.28907" lon="0.86125">
        <ele>93.865844726562</ele>
        <time>2015-03-14T10:36:17Z</time>
      </trkpt>
      <trkpt lat="44.28899" lon="0.86135">
        <ele>93.385131835938</ele>
        <time>2015-03-14T10:36:35Z</time>
      </trkpt>
      <trkpt lat="44.28882" lon="0.86149">
        <ele>94.346557617188</ele>
        <time>2015-03-14T10:36:57Z</time>
      </trkpt>
      <trkpt lat="44.28873" lon="0.86154">
        <ele>95.788452148438</ele>
        <time>2015-03-14T10:37:13Z</time>
      </trkpt>
      <trkpt lat="44.28855" lon="0.86174">
        <ele>96.269287109375</ele>
        <time>2015-03-14T10:37:39Z</time>
      </trkpt>
      <trkpt lat="44.28842" lon="0.86199">
        <ele>95.307739257812</ele>
        <time>2015-03-14T10:38:01Z</time>
      </trkpt>
      <trkpt lat="44.2883" lon="0.86231">
        <ele>94.346557617188</ele>
        <time>2015-03-14T10:38:26Z</time>
      </trkpt>
      <trkpt lat="44.28817" lon="0.86261">
        <ele>92.904541015625</ele>
        <time>2015-03-14T10:38:49Z</time>
      </trkpt>
      <trkpt lat="44.28806" lon="0.86284">
        <ele>94.346557617188</ele>
        <time>2015-03-14T10:39:09Z</time>
      </trkpt>
      <trkpt lat="44.28796" lon="0.86307">
        <ele>95.788452148438</ele>
        <time>2015-03-14T10:39:28Z</time>
      </trkpt>
      <trkpt lat="44.28792" lon="0.86316">
        <ele>94.8271484375</ele>
        <time>2015-03-14T10:39:36Z</time>
      </trkpt>
      <trkpt lat="44.28789" lon="0.86325">
        <ele>94.8271484375</ele>
        <time>2015-03-14T10:39:44Z</time>
      </trkpt>
      <trkpt lat="44.28773" lon="0.86359">
        <ele>99.153076171875</ele>
        <time>2015-03-14T10:40:10Z</time>
      </trkpt>
      <trkpt lat="44.28757" lon="0.86396">
        <ele>102.037109375</ele>
        <time>2015-03-14T10:40:41Z</time>
      </trkpt>
      <trkpt lat="44.28746" lon="0.86423">
        <ele>103.95971679688</ele>
        <time>2015-03-14T10:41:06Z</time>
      </trkpt>
      <trkpt lat="44.28737" lon="0.86446">
        <ele>105.40173339844</ele>
        <time>2015-03-14T10:41:26Z</time>
      </trkpt>
      <trkpt lat="44.28727" lon="0.86469">
        <ele>107.32434082031</ele>
        <time>2015-03-14T10:41:47Z</time>
      </trkpt>
      <trkpt lat="44.28718" lon="0.8649">
        <ele>106.36303710938</ele>
        <time>2015-03-14T10:42:09Z</time>
      </trkpt>
      <trkpt lat="44.28711" lon="0.86501">
        <ele>105.88244628906</ele>
        <time>2015-03-14T10:42:25Z</time>
      </trkpt>
      <trkpt lat="44.28696" lon="0.8652">
        <ele>106.36303710938</ele>
        <time>2015-03-14T10:42:47Z</time>
      </trkpt>
      <trkpt lat="44.28693" lon="0.86526">
        <ele>105.88244628906</ele>
        <time>2015-03-14T10:42:53Z</time>
      </trkpt>
      <trkpt lat="44.28682" lon="0.86535">
        <ele>109.72766113281</ele>
        <time>2015-03-14T10:43:06Z</time>
      </trkpt>
      <trkpt lat="44.28682" lon="0.86536">
        <ele>109.72766113281</ele>
        <time>2015-03-14T10:43:07Z</time>
      </trkpt>
      <trkpt lat="44.28667" lon="0.86553">
        <ele>111.16955566406</ele>
        <time>2015-03-14T10:43:30Z</time>
      </trkpt>
      <trkpt lat="44.28657" lon="0.86565">
        <ele>110.20825195312</ele>
        <time>2015-03-14T10:43:46Z</time>
      </trkpt>
      <trkpt lat="44.28646" lon="0.86581">
        <ele>106.36303710938</ele>
        <time>2015-03-14T10:44:03Z</time>
      </trkpt>
      <trkpt lat="44.28633" lon="0.866">
        <ele>105.40173339844</ele>
        <time>2015-03-14T10:44:20Z</time>
      </trkpt>
      <trkpt lat="44.28617" lon="0.86622">
        <ele>104.4404296875</ele>
        <time>2015-03-14T10:44:44Z</time>
      </trkpt>
      <trkpt lat="44.28594" lon="0.86642">
        <ele>102.99829101562</ele>
        <time>2015-03-14T10:45:10Z</time>
      </trkpt>
      <trkpt lat="44.28572" lon="0.86662">
        <ele>104.92102050781</ele>
        <time>2015-03-14T10:45:33Z</time>
      </trkpt>
      <trkpt lat="44.28559" lon="0.86684">
        <ele>103.47900390625</ele>
        <time>2015-03-14T10:45:55Z</time>
      </trkpt>
      <trkpt lat="44.28553" lon="0.86702">
        <ele>103.95971679688</ele>
        <time>2015-03-14T10:46:16Z</time>
      </trkpt>
      <trkpt lat="44.28543" lon="0.86722">
        <ele>103.95971679688</ele>
        <time>2015-03-14T10:46:38Z</time>
      </trkpt>
      <trkpt lat="44.2854" lon="0.86726">
        <ele>103.47900390625</ele>
        <time>2015-03-14T10:46:43Z</time>
      </trkpt>
      <trkpt lat="44.28517" lon="0.86724">
        <ele>100.11450195312</ele>
        <time>2015-03-14T10:47:09Z</time>
      </trkpt>
      <trkpt lat="44.28482" lon="0.86718">
        <ele>95.307739257812</ele>
        <time>2015-03-14T10:47:50Z</time>
      </trkpt>
      <trkpt lat="44.2846" lon="0.86714">
        <ele>93.385131835938</ele>
        <time>2015-03-14T10:48:14Z</time>
      </trkpt>
      <trkpt lat="44.28439" lon="0.86711">
        <ele>90.98193359375</ele>
        <time>2015-03-14T10:48:43Z</time>
      </trkpt>
      <trkpt lat="44.28418" lon="0.86712">
        <ele>90.98193359375</ele>
        <time>2015-03-14T10:49:07Z</time>
      </trkpt>
      <trkpt lat="44.28406" lon="0.86721">
        <ele>90.020629882812</ele>
        <time>2015-03-14T10:49:29Z</time>
      </trkpt>
      <trkpt lat="44.28407" lon="0.8675">
        <ele>90.020629882812</ele>
        <time>2015-03-14T10:49:52Z</time>
      </trkpt>
      <trkpt lat="44.28407" lon="0.86767">
        <ele>90.020629882812</ele>
        <time>2015-03-14T10:50:06Z</time>
      </trkpt>
      <trkpt lat="44.2841" lon="0.86808">
        <ele>90.501342773438</ele>
        <time>2015-03-14T10:50:34Z</time>
      </trkpt>
      <trkpt lat="44.28415" lon="0.86848">
        <ele>89.539916992188</ele>
        <time>2015-03-14T10:51:02Z</time>
      </trkpt>
      <trkpt lat="44.28422" lon="0.86883">
        <ele>88.098022460938</ele>
        <time>2015-03-14T10:51:26Z</time>
      </trkpt>
      <trkpt lat="44.28428" lon="0.86924">
        <ele>87.136596679688</ele>
        <time>2015-03-14T10:51:54Z</time>
      </trkpt>
      <trkpt lat="44.28433" lon="0.86958">
        <ele>87.136596679688</ele>
        <time>2015-03-14T10:52:18Z</time>
      </trkpt>
      <trkpt lat="44.28434" lon="0.86961">
        <ele>87.6171875</ele>
        <time>2015-03-14T10:52:21Z</time>
      </trkpt>
      <trkpt lat="44.28439" lon="0.86968">
        <ele>88.098022460938</ele>
        <time>2015-03-14T10:52:28Z</time>
      </trkpt>
      <trkpt lat="44.28456" lon="0.86969">
        <ele>87.136596679688</ele>
        <time>2015-03-14T10:52:44Z</time>
      </trkpt>
      <trkpt lat="44.28467" lon="0.86978">
        <ele>88.578735351562</ele>
        <time>2015-03-14T10:53:02Z</time>
      </trkpt>
      <trkpt lat="44.28478" lon="0.87002">
        <ele>88.098022460938</ele>
        <time>2015-03-14T10:53:23Z</time>
      </trkpt>
      <trkpt lat="44.28489" lon="0.87028">
        <ele>87.136596679688</ele>
        <time>2015-03-14T10:53:44Z</time>
      </trkpt>
      <trkpt lat="44.28501" lon="0.87056">
        <ele>87.136596679688</ele>
        <time>2015-03-14T10:54:07Z</time>
      </trkpt>
      <trkpt lat="44.28511" lon="0.87093">
        <ele>87.136596679688</ele>
        <time>2015-03-14T10:54:34Z</time>
      </trkpt>
      <trkpt lat="44.28513" lon="0.87128">
        <ele>88.098022460938</ele>
        <time>2015-03-14T10:54:59Z</time>
      </trkpt>
      <trkpt lat="44.28514" lon="0.87158">
        <ele>88.098022460938</ele>
        <time>2015-03-14T10:55:21Z</time>
      </trkpt>
      <trkpt lat="44.28518" lon="0.87185">
        <ele>89.539916992188</ele>
        <time>2015-03-14T10:55:42Z</time>
      </trkpt>
      <trkpt lat="44.28521" lon="0.87199">
        <ele>88.578735351562</ele>
        <time>2015-03-14T10:56:02Z</time>
      </trkpt>
      <trkpt lat="44.28523" lon="0.87208">
        <ele>89.539916992188</ele>
        <time>2015-03-14T10:56:22Z</time>
      </trkpt>
      <trkpt lat="44.28527" lon="0.87229">
        <ele>89.539916992188</ele>
        <time>2015-03-14T10:56:40Z</time>
      </trkpt>
      <trkpt lat="44.28531" lon="0.87251">
        <ele>89.539916992188</ele>
        <time>2015-03-14T10:56:56Z</time>
      </trkpt>
      <trkpt lat="44.28532" lon="0.87261">
        <ele>89.539916992188</ele>
        <time>2015-03-14T10:57:03Z</time>
      </trkpt>
      <trkpt lat="44.28533" lon="0.8729">
        <ele>87.6171875</ele>
        <time>2015-03-14T10:57:24Z</time>
      </trkpt>
      <trkpt lat="44.28534" lon="0.87311">
        <ele>86.656005859375</ele>
        <time>2015-03-14T10:57:38Z</time>
      </trkpt>
      <trkpt lat="44.28534" lon="0.87335">
        <ele>87.136596679688</ele>
        <time>2015-03-14T10:57:56Z</time>
      </trkpt>
      <trkpt lat="44.28537" lon="0.87363">
        <ele>85.694580078125</ele>
        <time>2015-03-14T10:58:15Z</time>
      </trkpt>
      <trkpt lat="44.2854" lon="0.87387">
        <ele>84.7333984375</ele>
        <time>2015-03-14T10:58:33Z</time>
      </trkpt>
      <trkpt lat="44.28544" lon="0.8742">
        <ele>85.213989257812</ele>
        <time>2015-03-14T10:58:56Z</time>
      </trkpt>
      <trkpt lat="44.28547" lon="0.8745">
        <ele>85.694580078125</ele>
        <time>2015-03-14T10:59:17Z</time>
      </trkpt>
      <trkpt lat="44.28553" lon="0.87466">
        <ele>84.7333984375</ele>
        <time>2015-03-14T10:59:33Z</time>
      </trkpt>
      <trkpt lat="44.28554" lon="0.87469">
        <ele>84.7333984375</ele>
        <time>2015-03-14T10:59:35Z</time>
      </trkpt>
      <trkpt lat="44.28558" lon="0.87489">
        <ele>82.330078125</ele>
        <time>2015-03-14T10:59:50Z</time>
      </trkpt>
      <trkpt lat="44.2856" lon="0.87494">
        <ele>81.368774414062</ele>
        <time>2015-03-14T10:59:56Z</time>
      </trkpt>
      <trkpt lat="44.28562" lon="0.87515">
        <ele>84.7333984375</ele>
        <time>2015-03-14T11:00:12Z</time>
      </trkpt>
      <trkpt lat="44.28566" lon="0.87541">
        <ele>85.213989257812</ele>
        <time>2015-03-14T11:00:36Z</time>
      </trkpt>
      <trkpt lat="44.28572" lon="0.87569">
        <ele>87.6171875</ele>
        <time>2015-03-14T11:00:59Z</time>
      </trkpt>
      <trkpt lat="44.28573" lon="0.87573">
        <ele>88.098022460938</ele>
        <time>2015-03-14T11:01:13Z</time>
      </trkpt>
      <trkpt lat="44.28574" lon="0.87592">
        <ele>87.6171875</ele>
        <time>2015-03-14T11:01:43Z</time>
      </trkpt>
      <trkpt lat="44.28579" lon="0.87627">
        <ele>88.098022460938</ele>
        <time>2015-03-14T11:02:08Z</time>
      </trkpt>
      <trkpt lat="44.28586" lon="0.87667">
        <ele>88.578735351562</ele>
        <time>2015-03-14T11:02:36Z</time>
      </trkpt>
      <trkpt lat="44.28595" lon="0.87702">
        <ele>88.098022460938</ele>
        <time>2015-03-14T11:03:02Z</time>
      </trkpt>
      <trkpt lat="44.28607" lon="0.87738">
        <ele>89.059326171875</ele>
        <time>2015-03-14T11:03:28Z</time>
      </trkpt>
      <trkpt lat="44.28623" lon="0.87785">
        <ele>91.462524414062</ele>
        <time>2015-03-14T11:04:04Z</time>
      </trkpt>
      <trkpt lat="44.28639" lon="0.87831">
        <ele>92.423950195312</ele>
        <time>2015-03-14T11:04:42Z</time>
      </trkpt>
      <trkpt lat="44.28646" lon="0.87861">
        <ele>93.385131835938</ele>
        <time>2015-03-14T11:05:08Z</time>
      </trkpt>
      <trkpt lat="44.28646" lon="0.87893">
        <ele>93.385131835938</ele>
        <time>2015-03-14T11:05:32Z</time>
      </trkpt>
      <trkpt lat="44.28641" lon="0.87931">
        <ele>93.865844726562</ele>
        <time>2015-03-14T11:05:57Z</time>
      </trkpt>
      <trkpt lat="44.28639" lon="0.87967">
        <ele>93.385131835938</ele>
        <time>2015-03-14T11:06:23Z</time>
      </trkpt>
      <trkpt lat="44.2864" lon="0.88001">
        <ele>92.423950195312</ele>
        <time>2015-03-14T11:06:50Z</time>
      </trkpt>
      <trkpt lat="44.2864" lon="0.88026">
        <ele>90.98193359375</ele>
        <time>2015-03-14T11:07:07Z</time>
      </trkpt>
      <trkpt lat="44.28642" lon="0.88065">
        <ele>91.462524414062</ele>
        <time>2015-03-14T11:07:32Z</time>
      </trkpt>
      <trkpt lat="44.28644" lon="0.88095">
        <ele>92.423950195312</ele>
        <time>2015-03-14T11:07:51Z</time>
      </trkpt>
      <trkpt lat="44.28645" lon="0.88124">
        <ele>94.346557617188</ele>
        <time>2015-03-14T11:08:11Z</time>
      </trkpt>
      <trkpt lat="44.28646" lon="0.8813">
        <ele>95.307739257812</ele>
        <time>2015-03-14T11:08:15Z</time>
      </trkpt>
      <trkpt lat="44.28649" lon="0.88163">
        <ele>96.269287109375</ele>
        <time>2015-03-14T11:08:39Z</time>
      </trkpt>
      <trkpt lat="44.28653" lon="0.88181">
        <ele>95.307739257812</ele>
        <time>2015-03-14T11:08:53Z</time>
      </trkpt>
      <trkpt lat="44.2866" lon="0.88207">
        <ele>96.269287109375</ele>
        <time>2015-03-14T11:09:09Z</time>
      </trkpt>
      <trkpt lat="44.28672" lon="0.88244">
        <ele>96.749877929688</ele>
        <time>2015-03-14T11:09:35Z</time>
      </trkpt>
      <trkpt lat="44.28684" lon="0.88268">
        <ele>97.711181640625</ele>
        <time>2015-03-14T11:09:53Z</time>
      </trkpt>
      <trkpt lat="44.28707" lon="0.88303">
        <ele>97.23046875</ele>
        <time>2015-03-14T11:10:23Z</time>
      </trkpt>
      <trkpt lat="44.28726" lon="0.8833">
        <ele>94.8271484375</ele>
        <time>2015-03-14T11:10:48Z</time>
      </trkpt>
      <trkpt lat="44.28746" lon="0.88361">
        <ele>93.385131835938</ele>
        <time>2015-03-14T11:11:14Z</time>
      </trkpt>
      <trkpt lat="44.28759" lon="0.88393">
        <ele>92.904541015625</ele>
        <time>2015-03-14T11:11:39Z</time>
      </trkpt>
      <trkpt lat="44.28765" lon="0.88429">
        <ele>90.98193359375</ele>
        <time>2015-03-14T11:12:07Z</time>
      </trkpt>
      <trkpt lat="44.28769" lon="0.88453">
        <ele>91.462524414062</ele>
        <time>2015-03-14T11:12:25Z</time>
      </trkpt>
      <trkpt lat="44.28776" lon="0.88457">
        <ele>91.462524414062</ele>
        <time>2015-03-14T11:12:33Z</time>
      </trkpt>
      <trkpt lat="44.28801" lon="0.88455">
        <ele>92.904541015625</ele>
        <time>2015-03-14T11:12:56Z</time>
      </trkpt>
      <trkpt lat="44.28825" lon="0.88461">
        <ele>93.865844726562</ele>
        <time>2015-03-14T11:13:22Z</time>
      </trkpt>
      <trkpt lat="44.28847" lon="0.88466">
        <ele>96.749877929688</ele>
        <time>2015-03-14T11:13:47Z</time>
      </trkpt>
      <trkpt lat="44.28869" lon="0.88471">
        <ele>99.6337890625</ele>
        <time>2015-03-14T11:14:12Z</time>
      </trkpt>
      <trkpt lat="44.28892" lon="0.88479">
        <ele>100.59509277344</ele>
        <time>2015-03-14T11:14:38Z</time>
      </trkpt>
      <trkpt lat="44.28915" lon="0.88488">
        <ele>102.51770019531</ele>
        <time>2015-03-14T11:15:04Z</time>
      </trkpt>
      <trkpt lat="44.28935" lon="0.88492">
        <ele>103.95971679688</ele>
        <time>2015-03-14T11:15:24Z</time>
      </trkpt>
      <trkpt lat="44.2896" lon="0.88496">
        <ele>105.88244628906</ele>
        <time>2015-03-14T11:15:49Z</time>
      </trkpt>
      <trkpt lat="44.28982" lon="0.88501">
        <ele>106.36303710938</ele>
        <time>2015-03-14T11:16:12Z</time>
      </trkpt>
      <trkpt lat="44.29002" lon="0.88508">
        <ele>106.84362792969</ele>
        <time>2015-03-14T11:16:32Z</time>
      </trkpt>
      <trkpt lat="44.29016" lon="0.88516">
        <ele>106.36303710938</ele>
        <time>2015-03-14T11:16:49Z</time>
      </trkpt>
      <trkpt lat="44.2903" lon="0.88517">
        <ele>106.84362792969</ele>
        <time>2015-03-14T11:17:07Z</time>
      </trkpt>
      <trkpt lat="44.29031" lon="0.88515">
        <ele>106.84362792969</ele>
        <time>2015-03-14T11:17:56Z</time>
      </trkpt>
      <trkpt lat="44.2903" lon="0.88501">
        <ele>106.84362792969</ele>
        <time>2015-03-14T11:18:09Z</time>
      </trkpt>
      <trkpt lat="44.29036" lon="0.88477">
        <ele>106.84362792969</ele>
        <time>2015-03-14T11:18:26Z</time>
      </trkpt>
      <trkpt lat="44.29037" lon="0.88472">
        <ele>105.88244628906</ele>
        <time>2015-03-14T11:18:41Z</time>
      </trkpt>
      <trkpt lat="44.2904" lon="0.88458">
        <ele>107.32434082031</ele>
        <time>2015-03-14T11:18:57Z</time>
      </trkpt>
      <trkpt lat="44.29043" lon="0.88442">
        <ele>106.84362792969</ele>
        <time>2015-03-14T11:19:11Z</time>
      </trkpt>
      <trkpt lat="44.29047" lon="0.88424">
        <ele>107.32434082031</ele>
        <time>2015-03-14T11:19:27Z</time>
      </trkpt>
      <trkpt lat="44.29051" lon="0.88408">
        <ele>106.36303710938</ele>
        <time>2015-03-14T11:19:41Z</time>
      </trkpt>
      <trkpt lat="44.29052" lon="0.88401">
        <ele>107.80505371094</ele>
        <time>2015-03-14T11:19:46Z</time>
      </trkpt>
      <trkpt lat="44.29053" lon="0.88392">
        <ele>108.28564453125</ele>
        <time>2015-03-14T11:19:53Z</time>
      </trkpt>
      <trkpt lat="44.29059" lon="0.88376">
        <ele>106.36303710938</ele>
        <time>2015-03-14T11:20:10Z</time>
      </trkpt>
      <trkpt lat="44.29065" lon="0.88358">
        <ele>103.95971679688</ele>
        <time>2015-03-14T11:20:22Z</time>
      </trkpt>
      <trkpt lat="44.29068" lon="0.8835">
        <ele>103.47900390625</ele>
        <time>2015-03-14T11:20:31Z</time>
      </trkpt>
      <trkpt lat="44.29071" lon="0.88335">
        <ele>102.037109375</ele>
        <time>2015-03-14T11:20:45Z</time>
      </trkpt>
      <trkpt lat="44.2907" lon="0.88316">
        <ele>103.95971679688</ele>
        <time>2015-03-14T11:21:00Z</time>
      </trkpt>
      <trkpt lat="44.2907" lon="0.88309">
        <ele>105.88244628906</ele>
        <time>2015-03-14T11:21:05Z</time>
      </trkpt>
      <trkpt lat="44.2907" lon="0.88295">
        <ele>107.32434082031</ele>
        <time>2015-03-14T11:21:19Z</time>
      </trkpt>
      <trkpt lat="44.29068" lon="0.88278">
        <ele>105.40173339844</ele>
        <time>2015-03-14T11:21:36Z</time>
      </trkpt>
      <trkpt lat="44.29072" lon="0.88259">
        <ele>103.47900390625</ele>
        <time>2015-03-14T11:21:52Z</time>
      </trkpt>
      <trkpt lat="44.29071" lon="0.88243">
        <ele>103.47900390625</ele>
        <time>2015-03-14T11:22:06Z</time>
      </trkpt>
      <trkpt lat="44.29072" lon="0.88223">
        <ele>107.80505371094</ele>
        <time>2015-03-14T11:22:22Z</time>
      </trkpt>
      <trkpt lat="44.29077" lon="0.8821">
        <ele>111.16955566406</ele>
        <time>2015-03-14T11:22:36Z</time>
      </trkpt>
      <trkpt lat="44.29077" lon="0.88202">
        <ele>112.61157226562</ele>
        <time>2015-03-14T11:22:42Z</time>
      </trkpt>
      <trkpt lat="44.29085" lon="0.88191">
        <ele>114.05358886719</ele>
        <time>2015-03-14T11:22:58Z</time>
      </trkpt>
      <trkpt lat="44.29091" lon="0.88176">
        <ele>114.5341796875</ele>
        <time>2015-03-14T11:23:15Z</time>
      </trkpt>
      <trkpt lat="44.29092" lon="0.88161">
        <ele>116.9375</ele>
        <time>2015-03-14T11:23:29Z</time>
      </trkpt>
      <trkpt lat="44.29097" lon="0.8815">
        <ele>116.9375</ele>
        <time>2015-03-14T11:23:45Z</time>
      </trkpt>
      <trkpt lat="44.29101" lon="0.8814">
        <ele>116.9375</ele>
        <time>2015-03-14T11:23:59Z</time>
      </trkpt>
      <trkpt lat="44.29106" lon="0.88127">
        <ele>119.3408203125</ele>
        <time>2015-03-14T11:24:15Z</time>
      </trkpt>
      <trkpt lat="44.29109" lon="0.88117">
        <ele>121.26354980469</ele>
        <time>2015-03-14T11:24:28Z</time>
      </trkpt>
      <trkpt lat="44.2911" lon="0.88115">
        <ele>121.744140625</ele>
        <time>2015-03-14T11:24:30Z</time>
      </trkpt>
      <trkpt lat="44.29112" lon="0.88106">
        <ele>123.66674804688</ele>
        <time>2015-03-14T11:24:39Z</time>
      </trkpt>
      <trkpt lat="44.29118" lon="0.88093">
        <ele>124.14733886719</ele>
        <time>2015-03-14T11:24:52Z</time>
      </trkpt>
      <trkpt lat="44.29126" lon="0.88079">
        <ele>124.62805175781</ele>
        <time>2015-03-14T11:25:09Z</time>
      </trkpt>
      <trkpt lat="44.2914" lon="0.88067">
        <ele>124.62805175781</ele>
        <time>2015-03-14T11:25:25Z</time>
      </trkpt>
      <trkpt lat="44.29154" lon="0.88054">
        <ele>124.62805175781</ele>
        <time>2015-03-14T11:25:45Z</time>
      </trkpt>
      <trkpt lat="44.29164" lon="0.88042">
        <ele>124.62805175781</ele>
        <time>2015-03-14T11:26:03Z</time>
      </trkpt>
      <trkpt lat="44.29172" lon="0.88031">
        <ele>124.14733886719</ele>
        <time>2015-03-14T11:26:19Z</time>
      </trkpt>
      <trkpt lat="44.2918" lon="0.88019">
        <ele>124.62805175781</ele>
        <time>2015-03-14T11:26:36Z</time>
      </trkpt>
      <trkpt lat="44.29195" lon="0.88005">
        <ele>124.62805175781</ele>
        <time>2015-03-14T11:26:55Z</time>
      </trkpt>
      <trkpt lat="44.29207" lon="0.87991">
        <ele>123.66674804688</ele>
        <time>2015-03-14T11:27:15Z</time>
      </trkpt>
      <trkpt lat="44.29219" lon="0.87978">
        <ele>127.03137207031</ele>
        <time>2015-03-14T11:27:32Z</time>
      </trkpt>
      <trkpt lat="44.2923" lon="0.87964">
        <ele>128.47338867188</ele>
        <time>2015-03-14T11:27:48Z</time>
      </trkpt>
      <trkpt lat="44.29244" lon="0.87948">
        <ele>127.51196289062</ele>
        <time>2015-03-14T11:28:08Z</time>
      </trkpt>
      <trkpt lat="44.29256" lon="0.87934">
        <ele>128.9541015625</ele>
        <time>2015-03-14T11:28:25Z</time>
      </trkpt>
      <trkpt lat="44.29266" lon="0.87922">
        <ele>130.39599609375</ele>
        <time>2015-03-14T11:28:42Z</time>
      </trkpt>
      <trkpt lat="44.2928" lon="0.87912">
        <ele>130.87670898438</ele>
        <time>2015-03-14T11:29:01Z</time>
      </trkpt>
      <trkpt lat="44.29294" lon="0.87903">
        <ele>132.31860351562</ele>
        <time>2015-03-14T11:29:18Z</time>
      </trkpt>
      <trkpt lat="44.29307" lon="0.87896">
        <ele>133.27990722656</ele>
        <time>2015-03-14T11:29:36Z</time>
      </trkpt>
      <trkpt lat="44.29319" lon="0.87888">
        <ele>135.20251464844</ele>
        <time>2015-03-14T11:29:51Z</time>
      </trkpt>
      <trkpt lat="44.29333" lon="0.87878">
        <ele>134.72192382812</ele>
        <time>2015-03-14T11:30:09Z</time>
      </trkpt>
      <trkpt lat="44.29344" lon="0.87867">
        <ele>135.20251464844</ele>
        <time>2015-03-14T11:30:26Z</time>
      </trkpt>
      <trkpt lat="44.29353" lon="0.87854">
        <ele>135.68310546875</ele>
        <time>2015-03-14T11:30:44Z</time>
      </trkpt>
      <trkpt lat="44.29362" lon="0.87839">
        <ele>137.12524414062</ele>
        <time>2015-03-14T11:31:02Z</time>
      </trkpt>
      <trkpt lat="44.29374" lon="0.8782">
        <ele>137.12524414062</ele>
        <time>2015-03-14T11:31:24Z</time>
      </trkpt>
      <trkpt lat="44.29381" lon="0.87808">
        <ele>137.60583496094</ele>
        <time>2015-03-14T11:31:38Z</time>
      </trkpt>
      <trkpt lat="44.29387" lon="0.87793">
        <ele>137.60583496094</ele>
        <time>2015-03-14T11:31:55Z</time>
      </trkpt>
      <trkpt lat="44.29392" lon="0.87779">
        <ele>137.60583496094</ele>
        <time>2015-03-14T11:32:10Z</time>
      </trkpt>
      <trkpt lat="44.29385" lon="0.87755">
        <ele>132.79931640625</ele>
        <time>2015-03-14T11:32:32Z</time>
      </trkpt>
      <trkpt lat="44.29379" lon="0.8773">
        <ele>131.35729980469</ele>
        <time>2015-03-14T11:32:52Z</time>
      </trkpt>
      <trkpt lat="44.29377" lon="0.87712">
        <ele>129.91528320312</ele>
        <time>2015-03-14T11:33:06Z</time>
      </trkpt>
      <trkpt lat="44.29378" lon="0.87685">
        <ele>129.43469238281</ele>
        <time>2015-03-14T11:33:27Z</time>
      </trkpt>
      <trkpt lat="44.29382" lon="0.87656">
        <ele>129.91528320312</ele>
        <time>2015-03-14T11:33:50Z</time>
      </trkpt>
      <trkpt lat="44.29388" lon="0.87627">
        <ele>127.03137207031</ele>
        <time>2015-03-14T11:34:13Z</time>
      </trkpt>
      <trkpt lat="44.29391" lon="0.87621">
        <ele>125.58935546875</ele>
        <time>2015-03-14T11:34:19Z</time>
      </trkpt>
      <trkpt lat="44.29397" lon="0.87604">
        <ele>128.9541015625</ele>
        <time>2015-03-14T11:34:40Z</time>
      </trkpt>
      <trkpt lat="44.29398" lon="0.87601">
        <ele>128.9541015625</ele>
        <time>2015-03-14T11:35:06Z</time>
      </trkpt>
      <trkpt lat="44.29398" lon="0.87599">
        <ele>130.39599609375</ele>
        <time>2015-03-14T11:36:41Z</time>
      </trkpt>
      <trkpt lat="44.29405" lon="0.8759">
        <ele>131.837890625</ele>
        <time>2015-03-14T11:36:59Z</time>
      </trkpt>
      <trkpt lat="44.29406" lon="0.87586">
        <ele>132.79931640625</ele>
        <time>2015-03-14T11:37:03Z</time>
      </trkpt>
      <trkpt lat="44.29412" lon="0.87566">
        <ele>134.72192382812</ele>
        <time>2015-03-14T11:37:18Z</time>
      </trkpt>
      <trkpt lat="44.29414" lon="0.87557">
        <ele>134.72192382812</ele>
        <time>2015-03-14T11:37:24Z</time>
      </trkpt>
      <trkpt lat="44.29414" lon="0.87531">
        <ele>134.2412109375</ele>
        <time>2015-03-14T11:37:40Z</time>
      </trkpt>
      <trkpt lat="44.29412" lon="0.875">
        <ele>136.16394042969</ele>
        <time>2015-03-14T11:37:59Z</time>
      </trkpt>
      <trkpt lat="44.29414" lon="0.87482">
        <ele>135.20251464844</ele>
        <time>2015-03-14T11:38:11Z</time>
      </trkpt>
      <trkpt lat="44.29416" lon="0.87473">
        <ele>134.72192382812</ele>
        <time>2015-03-14T11:38:17Z</time>
      </trkpt>
      <trkpt lat="44.29418" lon="0.87463">
        <ele>134.72192382812</ele>
        <time>2015-03-14T11:38:24Z</time>
      </trkpt>
      <trkpt lat="44.29422" lon="0.87443">
        <ele>133.76049804688</ele>
        <time>2015-03-14T11:38:40Z</time>
      </trkpt>
      <trkpt lat="44.29432" lon="0.87427">
        <ele>132.79931640625</ele>
        <time>2015-03-14T11:38:55Z</time>
      </trkpt>
      <trkpt lat="44.2944" lon="0.87414">
        <ele>132.31860351562</ele>
        <time>2015-03-14T11:39:10Z</time>
      </trkpt>
      <trkpt lat="44.29459" lon="0.87397">
        <ele>133.76049804688</ele>
        <time>2015-03-14T11:39:32Z</time>
      </trkpt>
      <trkpt lat="44.29473" lon="0.87386">
        <ele>135.20251464844</ele>
        <time>2015-03-14T11:39:50Z</time>
      </trkpt>
      <trkpt lat="44.29492" lon="0.87373">
        <ele>134.2412109375</ele>
        <time>2015-03-14T11:40:12Z</time>
      </trkpt>
      <trkpt lat="44.29513" lon="0.87358">
        <ele>131.837890625</ele>
        <time>2015-03-14T11:40:34Z</time>
      </trkpt>
      <trkpt lat="44.29532" lon="0.87345">
        <ele>128.9541015625</ele>
        <time>2015-03-14T11:40:54Z</time>
      </trkpt>
      <trkpt lat="44.29547" lon="0.87335">
        <ele>126.55065917969</ele>
        <time>2015-03-14T11:41:12Z</time>
      </trkpt>
      <trkpt lat="44.29564" lon="0.87322">
        <ele>126.06994628906</ele>
        <time>2015-03-14T11:41:32Z</time>
      </trkpt>
      <trkpt lat="44.29582" lon="0.8731">
        <ele>127.51196289062</ele>
        <time>2015-03-14T11:41:51Z</time>
      </trkpt>
      <trkpt lat="44.29601" lon="0.87293">
        <ele>128.47338867188</ele>
        <time>2015-03-14T11:42:15Z</time>
      </trkpt>
      <trkpt lat="44.29612" lon="0.87276">
        <ele>128.47338867188</ele>
        <time>2015-03-14T11:42:35Z</time>
      </trkpt>
      <trkpt lat="44.2962" lon="0.87254">
        <ele>129.91528320312</ele>
        <time>2015-03-14T11:42:55Z</time>
      </trkpt>
      <trkpt lat="44.2963" lon="0.87224">
        <ele>131.837890625</ele>
        <time>2015-03-14T11:43:23Z</time>
      </trkpt>
      <trkpt lat="44.29636" lon="0.87205">
        <ele>133.27990722656</ele>
        <time>2015-03-14T11:43:41Z</time>
      </trkpt>
      <trkpt lat="44.29651" lon="0.87173">
        <ele>135.68310546875</ele>
        <time>2015-03-14T11:44:14Z</time>
      </trkpt>
      <trkpt lat="44.29664" lon="0.87149">
        <ele>136.64465332031</ele>
        <time>2015-03-14T11:44:39Z</time>
      </trkpt>
      <trkpt lat="44.29679" lon="0.87123">
        <ele>136.64465332031</ele>
        <time>2015-03-14T11:45:05Z</time>
      </trkpt>
      <trkpt lat="44.29691" lon="0.87104">
        <ele>138.56726074219</ele>
        <time>2015-03-14T11:45:26Z</time>
      </trkpt>
      <trkpt lat="44.29706" lon="0.87083">
        <ele>137.60583496094</ele>
        <time>2015-03-14T11:45:53Z</time>
      </trkpt>
      <trkpt lat="44.29719" lon="0.8707">
        <ele>138.08654785156</ele>
        <time>2015-03-14T11:46:16Z</time>
      </trkpt>
      <trkpt lat="44.29729" lon="0.87056">
        <ele>138.56726074219</ele>
        <time>2015-03-14T11:46:34Z</time>
      </trkpt>
      <trkpt lat="44.2974" lon="0.87032">
        <ele>140.00915527344</ele>
        <time>2015-03-14T11:46:57Z</time>
      </trkpt>
      <trkpt lat="44.29751" lon="0.8701">
        <ele>140.48986816406</ele>
        <time>2015-03-14T11:47:17Z</time>
      </trkpt>
      <trkpt lat="44.29764" lon="0.86984">
        <ele>139.0478515625</ele>
        <time>2015-03-14T11:47:42Z</time>
      </trkpt>
      <trkpt lat="44.29778" lon="0.86963">
        <ele>138.56726074219</ele>
        <time>2015-03-14T11:48:04Z</time>
      </trkpt>
      <trkpt lat="44.29792" lon="0.86943">
        <ele>137.60583496094</ele>
        <time>2015-03-14T11:48:23Z</time>
      </trkpt>
      <trkpt lat="44.29803" lon="0.86912">
        <ele>135.20251464844</ele>
        <time>2015-03-14T11:48:47Z</time>
      </trkpt>
      <trkpt lat="44.29812" lon="0.86875">
        <ele>133.27990722656</ele>
        <time>2015-03-14T11:49:13Z</time>
      </trkpt>
      <trkpt lat="44.29825" lon="0.86849">
        <ele>130.87670898438</ele>
        <time>2015-03-14T11:49:34Z</time>
      </trkpt>
      <trkpt lat="44.29829" lon="0.86842">
        <ele>129.43469238281</ele>
        <time>2015-03-14T11:49:40Z</time>
      </trkpt>
      <trkpt lat="44.29833" lon="0.86825">
        <ele>127.51196289062</ele>
        <time>2015-03-14T11:49:53Z</time>
      </trkpt>
      <trkpt lat="44.29834" lon="0.86817">
        <ele>126.06994628906</ele>
        <time>2015-03-14T11:49:58Z</time>
      </trkpt>
      <trkpt lat="44.29836" lon="0.86805">
        <ele>124.62805175781</ele>
        <time>2015-03-14T11:50:09Z</time>
      </trkpt>
      <trkpt lat="44.29837" lon="0.86797">
        <ele>123.66674804688</ele>
        <time>2015-03-14T11:50:14Z</time>
      </trkpt>
      <trkpt lat="44.2984" lon="0.86776">
        <ele>122.22473144531</ele>
        <time>2015-03-14T11:50:29Z</time>
      </trkpt>
      <trkpt lat="44.29843" lon="0.86758">
        <ele>121.26354980469</ele>
        <time>2015-03-14T11:50:43Z</time>
      </trkpt>
      <trkpt lat="44.29844" lon="0.86754">
        <ele>120.78283691406</ele>
        <time>2015-03-14T11:50:46Z</time>
      </trkpt>
      <trkpt lat="44.29844" lon="0.86751">
        <ele>120.78283691406</ele>
        <time>2015-03-14T11:50:48Z</time>
      </trkpt>
      <trkpt lat="44.29847" lon="0.86738">
        <ele>118.37939453125</ele>
        <time>2015-03-14T11:50:58Z</time>
      </trkpt>
      <trkpt lat="44.29848" lon="0.86737">
        <ele>118.37939453125</ele>
        <time>2015-03-14T11:50:59Z</time>
      </trkpt>
      <trkpt lat="44.29851" lon="0.86731">
        <ele>118.37939453125</ele>
        <time>2015-03-14T11:51:04Z</time>
      </trkpt>
      <trkpt lat="44.29854" lon="0.86728">
        <ele>117.89880371094</ele>
        <time>2015-03-14T11:51:07Z</time>
      </trkpt>
      <trkpt lat="44.29855" lon="0.86711">
        <ele>119.82141113281</ele>
        <time>2015-03-14T11:51:18Z</time>
      </trkpt>
      <trkpt lat="44.29857" lon="0.86701">
        <ele>120.78283691406</ele>
        <time>2015-03-14T11:51:24Z</time>
      </trkpt>
      <trkpt lat="44.29861" lon="0.86697">
        <ele>120.30212402344</ele>
        <time>2015-03-14T11:51:29Z</time>
      </trkpt>
      <trkpt lat="44.29862" lon="0.86691">
        <ele>119.82141113281</ele>
        <time>2015-03-14T11:51:33Z</time>
      </trkpt>
      <trkpt lat="44.29867" lon="0.86667">
        <ele>120.30212402344</ele>
        <time>2015-03-14T11:51:50Z</time>
      </trkpt>
      <trkpt lat="44.29868" lon="0.8666">
        <ele>120.78283691406</ele>
        <time>2015-03-14T11:51:55Z</time>
      </trkpt>
      <trkpt lat="44.29874" lon="0.86643">
        <ele>122.22473144531</ele>
        <time>2015-03-14T11:52:09Z</time>
      </trkpt>
      <trkpt lat="44.29879" lon="0.86628">
        <ele>122.22473144531</ele>
        <time>2015-03-14T11:52:22Z</time>
      </trkpt>
      <trkpt lat="44.29885" lon="0.86606">
        <ele>124.62805175781</ele>
        <time>2015-03-14T11:52:39Z</time>
      </trkpt>
      <trkpt lat="44.29886" lon="0.866">
        <ele>124.14733886719</ele>
        <time>2015-03-14T11:52:52Z</time>
      </trkpt>
      <trkpt lat="44.29889" lon="0.86596">
        <ele>126.55065917969</ele>
        <time>2015-03-14T11:53:05Z</time>
      </trkpt>
      <trkpt lat="44.29892" lon="0.86592">
        <ele>128.47338867188</ele>
        <time>2015-03-14T11:53:25Z</time>
      </trkpt>
      <trkpt lat="44.29895" lon="0.86587">
        <ele>128.47338867188</ele>
        <time>2015-03-14T11:53:43Z</time>
      </trkpt>
      <trkpt lat="44.29903" lon="0.86582">
        <ele>129.43469238281</ele>
        <time>2015-03-14T11:53:55Z</time>
      </trkpt>
      <trkpt lat="44.29913" lon="0.86575">
        <ele>129.91528320312</ele>
        <time>2015-03-14T11:54:10Z</time>
      </trkpt>
      <trkpt lat="44.29923" lon="0.86569">
        <ele>130.39599609375</ele>
        <time>2015-03-14T11:54:26Z</time>
      </trkpt>
      <trkpt lat="44.29933" lon="0.86561">
        <ele>131.837890625</ele>
        <time>2015-03-14T11:54:41Z</time>
      </trkpt>
      <trkpt lat="44.2994" lon="0.86554">
        <ele>132.79931640625</ele>
        <time>2015-03-14T11:54:55Z</time>
      </trkpt>
      <trkpt lat="44.2995" lon="0.86548">
        <ele>133.76049804688</ele>
        <time>2015-03-14T11:55:12Z</time>
      </trkpt>
      <trkpt lat="44.29961" lon="0.86542">
        <ele>134.72192382812</ele>
        <time>2015-03-14T11:55:30Z</time>
      </trkpt>
      <trkpt lat="44.29964" lon="0.86539">
        <ele>136.64465332031</ele>
        <time>2015-03-14T11:55:41Z</time>
      </trkpt>
      <trkpt lat="44.29974" lon="0.86531">
        <ele>138.56726074219</ele>
        <time>2015-03-14T11:55:59Z</time>
      </trkpt>
      <trkpt lat="44.2998" lon="0.86527">
        <ele>139.0478515625</ele>
        <time>2015-03-14T11:56:14Z</time>
      </trkpt>
      <trkpt lat="44.29976" lon="0.86532">
        <ele>138.56726074219</ele>
        <time>2015-03-14T11:56:30Z</time>
      </trkpt>
      <trkpt lat="44.29979" lon="0.86534">
        <ele>139.0478515625</ele>
        <time>2015-03-14T11:56:46Z</time>
      </trkpt>
      <trkpt lat="44.29989" lon="0.86529">
        <ele>139.0478515625</ele>
        <time>2015-03-14T11:57:07Z</time>
      </trkpt>
      <trkpt lat="44.29998" lon="0.86525">
        <ele>141.93176269531</ele>
        <time>2015-03-14T11:57:26Z</time>
      </trkpt>
      <trkpt lat="44.30011" lon="0.8652">
        <ele>143.85437011719</ele>
        <time>2015-03-14T11:57:47Z</time>
      </trkpt>
      <trkpt lat="44.30021" lon="0.86516">
        <ele>144.33520507812</ele>
        <time>2015-03-14T11:58:07Z</time>
      </trkpt>
      <trkpt lat="44.30035" lon="0.8651">
        <ele>145.77709960938</ele>
        <time>2015-03-14T11:58:36Z</time>
      </trkpt>
      <trkpt lat="44.30041" lon="0.86506">
        <ele>146.2578125</ele>
        <time>2015-03-14T11:58:55Z</time>
      </trkpt>
      <trkpt lat="44.30046" lon="0.86489">
        <ele>150.58361816406</ele>
        <time>2015-03-14T11:59:20Z</time>
      </trkpt>
      <trkpt lat="44.30045" lon="0.86477">
        <ele>153.94836425781</ele>
        <time>2015-03-14T11:59:39Z</time>
      </trkpt>
      <trkpt lat="44.30044" lon="0.86467">
        <ele>153.94836425781</ele>
        <time>2015-03-14T11:59:53Z</time>
      </trkpt>
      <trkpt lat="44.30048" lon="0.86453">
        <ele>155.39025878906</ele>
        <time>2015-03-14T12:00:12Z</time>
      </trkpt>
      <trkpt lat="44.30052" lon="0.86445">
        <ele>157.31286621094</ele>
        <time>2015-03-14T12:00:28Z</time>
      </trkpt>
      <trkpt lat="44.30057" lon="0.86439">
        <ele>160.19689941406</ele>
        <time>2015-03-14T12:00:44Z</time>
      </trkpt>
      <trkpt lat="44.3006" lon="0.86433">
        <ele>159.23547363281</ele>
        <time>2015-03-14T12:01:00Z</time>
      </trkpt>
      <trkpt lat="44.30067" lon="0.86432">
        <ele>161.63891601562</ele>
        <time>2015-03-14T12:01:18Z</time>
      </trkpt>
      <trkpt lat="44.30071" lon="0.86432">
        <ele>161.63891601562</ele>
        <time>2015-03-14T12:01:35Z</time>
      </trkpt>
      <trkpt lat="44.30073" lon="0.86437">
        <ele>161.158203125</ele>
        <time>2015-03-14T12:02:03Z</time>
      </trkpt>
      <trkpt lat="44.30079" lon="0.86446">
        <ele>162.11950683594</ele>
        <time>2015-03-14T12:02:20Z</time>
      </trkpt>
      <trkpt lat="44.30086" lon="0.86451">
        <ele>162.60009765625</ele>
        <time>2015-03-14T12:02:31Z</time>
      </trkpt>
      <trkpt lat="44.30095" lon="0.86451">
        <ele>164.52270507812</ele>
        <time>2015-03-14T12:02:47Z</time>
      </trkpt>
      <trkpt lat="44.30101" lon="0.86448">
        <ele>166.4453125</ele>
        <time>2015-03-14T12:03:00Z</time>
      </trkpt>
      <trkpt lat="44.3011" lon="0.86443">
        <ele>168.36804199219</ele>
        <time>2015-03-14T12:03:16Z</time>
      </trkpt>
      <trkpt lat="44.30117" lon="0.86443">
        <ele>169.81005859375</ele>
        <time>2015-03-14T12:03:30Z</time>
      </trkpt>
      <trkpt lat="44.3012" lon="0.8644">
        <ele>171.73266601562</ele>
        <time>2015-03-14T12:03:47Z</time>
      </trkpt>
      <trkpt lat="44.30127" lon="0.86439">
        <ele>173.6552734375</ele>
        <time>2015-03-14T12:04:34Z</time>
      </trkpt>
      <trkpt lat="44.30133" lon="0.8644">
        <ele>174.61657714844</ele>
        <time>2015-03-14T12:04:47Z</time>
      </trkpt>
      <trkpt lat="44.30146" lon="0.86443">
        <ele>177.02001953125</ele>
        <time>2015-03-14T12:05:13Z</time>
      </trkpt>
      <trkpt lat="44.30162" lon="0.86448">
        <ele>181.82641601562</ele>
        <time>2015-03-14T12:05:42Z</time>
      </trkpt>
      <trkpt lat="44.3017" lon="0.8645">
        <ele>186.63317871094</ele>
        <time>2015-03-14T12:05:56Z</time>
      </trkpt>
      <trkpt lat="44.30178" lon="0.86454">
        <ele>190.47839355469</ele>
        <time>2015-03-14T12:06:10Z</time>
      </trkpt>
      <trkpt lat="44.30187" lon="0.8645">
        <ele>192.40112304688</ele>
        <time>2015-03-14T12:06:22Z</time>
      </trkpt>
      <trkpt lat="44.30195" lon="0.86444">
        <ele>192.88171386719</ele>
        <time>2015-03-14T12:06:37Z</time>
      </trkpt>
      <trkpt lat="44.302" lon="0.86441">
        <ele>191.43957519531</ele>
        <time>2015-03-14T12:06:59Z</time>
      </trkpt>
      <trkpt lat="44.3021" lon="0.86439">
        <ele>191.92028808594</ele>
        <time>2015-03-14T12:07:20Z</time>
      </trkpt>
      <trkpt lat="44.30222" lon="0.86437">
        <ele>191.92028808594</ele>
        <time>2015-03-14T12:07:41Z</time>
      </trkpt>
      <trkpt lat="44.30227" lon="0.86432">
        <ele>191.92028808594</ele>
        <time>2015-03-14T12:07:54Z</time>
      </trkpt>
      <trkpt lat="44.30235" lon="0.86432">
        <ele>192.40112304688</ele>
        <time>2015-03-14T12:08:09Z</time>
      </trkpt>
      <trkpt lat="44.30241" lon="0.86423">
        <ele>193.3623046875</ele>
        <time>2015-03-14T12:08:25Z</time>
      </trkpt>
      <trkpt lat="44.30247" lon="0.86417">
        <ele>192.40112304688</ele>
        <time>2015-03-14T12:08:38Z</time>
      </trkpt>
      <trkpt lat="44.30252" lon="0.86405">
        <ele>191.92028808594</ele>
        <time>2015-03-14T12:08:53Z</time>
      </trkpt>
      <trkpt lat="44.30255" lon="0.86391">
        <ele>191.43957519531</ele>
        <time>2015-03-14T12:09:09Z</time>
      </trkpt>
      <trkpt lat="44.3026" lon="0.86384">
        <ele>191.43957519531</ele>
        <time>2015-03-14T12:09:21Z</time>
      </trkpt>
      <trkpt lat="44.30263" lon="0.86382">
        <ele>191.43957519531</ele>
        <time>2015-03-14T12:09:26Z</time>
      </trkpt>
    </trkseg>
  </trk>
</gpx>